<?xml version='1.0' encoding='UTF-8'?><gpx version="1.1" creator="JPX - https://github.com/jenetics/jpx" xmlns="http://www.topografix.com/GPX/1/1"><trk><trkseg><trkpt lat="39.720197" lon="8.5074008"><ele>3.0</ele><time>2026-04-05T09:56:58.94Z</time></trkpt><trkpt lat="39.7201319" lon="8.5073214"><ele>3.0</ele><time>2026-04-05T09:57:01.94Z</time></trkpt><trkpt lat="39.7200644" lon="8.5072298"><ele>3.0</ele><time>2026-04-05T09:57:03.939Z</time></trkpt><trkpt lat="39.7199813" lon="8.5071281"><ele>3.0</ele><time>2026-04-05T09:57:05.94Z</time></trkpt><trkpt lat="39.7199413" lon="8.5070236"><ele>3.0</ele><time>2026-04-05T09:57:07.94Z</time></trkpt><trkpt lat="39.7199367" lon="8.5069162"><ele>2.6</ele><time>2026-04-05T09:57:09.94Z</time></trkpt><trkpt lat="39.7198932" lon="8.5068335"><ele>2.1999999999999997</ele><time>2026-04-05T09:57:11.939Z</time></trkpt><trkpt lat="39.7198193" lon="8.506775"><ele>1.8</ele><time>2026-04-05T09:57:13.938Z</time></trkpt><trkpt lat="39.7197227" lon="8.5067139"><ele>1.4</ele><time>2026-04-05T09:57:15.939Z</time></trkpt><trkpt lat="39.7196092" lon="8.5066369"><ele>1.0</ele><time>2026-04-05T09:57:17.94Z</time></trkpt><trkpt lat="39.7195459" lon="8.5065939"><ele>1.0</ele><time>2026-04-05T09:57:18.94Z</time></trkpt><trkpt lat="39.7194813" lon="8.5065513"><ele>0.9999999999999999</ele><time>2026-04-05T09:57:19.94Z</time></trkpt><trkpt lat="39.7194182" lon="8.5065093"><ele>1.0</ele><time>2026-04-05T09:57:20.94Z</time></trkpt><trkpt lat="39.7193561" lon="8.5064706"><ele>1.0</ele><time>2026-04-05T09:57:21.94Z</time></trkpt><trkpt lat="39.7192967" lon="8.5064339"><ele>0.9999999999999999</ele><time>2026-04-05T09:57:22.94Z</time></trkpt><trkpt lat="39.7192368" lon="8.506395"><ele>1.0</ele><time>2026-04-05T09:57:23.939Z</time></trkpt><trkpt lat="39.7191744" lon="8.5063528"><ele>1.0</ele><time>2026-04-05T09:57:24.939Z</time></trkpt><trkpt lat="39.719109" lon="8.5063088"><ele>0.8333333333333333</ele><time>2026-04-05T09:57:25.939Z</time></trkpt><trkpt lat="39.7190398" lon="8.5062643"><ele>0.6666666666666666</ele><time>2026-04-05T09:57:26.94Z</time></trkpt><trkpt lat="39.7189666" lon="8.5062193"><ele>0.5</ele><time>2026-04-05T09:57:27.939Z</time></trkpt><trkpt lat="39.7188923" lon="8.5061703"><ele>0.3333333333333333</ele><time>2026-04-05T09:57:28.94Z</time></trkpt><trkpt lat="39.7188182" lon="8.5061201"><ele>0.16666666666666666</ele><time>2026-04-05T09:57:29.94Z</time></trkpt><trkpt lat="39.7187428" lon="8.5060674"><ele>0.0</ele><time>2026-04-05T09:57:30.941Z</time></trkpt><trkpt lat="39.718666" lon="8.5060157"><ele>0.0</ele><time>2026-04-05T09:57:31.939Z</time></trkpt><trkpt lat="39.7185877" lon="8.5059632"><ele>0.0</ele><time>2026-04-05T09:57:32.94Z</time></trkpt><trkpt lat="39.7185074" lon="8.505911"><ele>0.0</ele><time>2026-04-05T09:57:33.941Z</time></trkpt><trkpt lat="39.718427" lon="8.5058588"><ele>0.0</ele><time>2026-04-05T09:57:34.94Z</time></trkpt><trkpt lat="39.7183471" lon="8.5058054"><ele>0.0</ele><time>2026-04-05T09:57:35.938Z</time></trkpt><trkpt lat="39.7182728" lon="8.5057575"><ele>0.0</ele><time>2026-04-05T09:57:36.94Z</time></trkpt><trkpt lat="39.7182061" lon="8.5057138"><ele>0.0</ele><time>2026-04-05T09:57:37.939Z</time></trkpt><trkpt lat="39.7181415" lon="8.5056688"><ele>0.0</ele><time>2026-04-05T09:57:38.941Z</time></trkpt><trkpt lat="39.7180844" lon="8.5056334"><ele>0.0</ele><time>2026-04-05T09:57:39.941Z</time></trkpt><trkpt lat="39.7180271" lon="8.5055934"><ele>0.0</ele><time>2026-04-05T09:57:40.941Z</time></trkpt><trkpt lat="39.7179628" lon="8.5055503"><ele>0.0</ele><time>2026-04-05T09:57:41.94Z</time></trkpt><trkpt lat="39.7178915" lon="8.5055024"><ele>0.0</ele><time>2026-04-05T09:57:42.939Z</time></trkpt><trkpt lat="39.7178257" lon="8.5054537"><ele>0.0</ele><time>2026-04-05T09:57:43.939Z</time></trkpt><trkpt lat="39.7177573" lon="8.5054074"><ele>0.0</ele><time>2026-04-05T09:57:44.941Z</time></trkpt><trkpt lat="39.7176858" lon="8.5053628"><ele>0.0</ele><time>2026-04-05T09:57:45.94Z</time></trkpt><trkpt lat="39.7176176" lon="8.5053186"><ele>0.0</ele><time>2026-04-05T09:57:46.94Z</time></trkpt><trkpt lat="39.7175488" lon="8.5052745"><ele>0.0</ele><time>2026-04-05T09:57:47.94Z</time></trkpt><trkpt lat="39.7174781" lon="8.5052277"><ele>0.0</ele><time>2026-04-05T09:57:48.94Z</time></trkpt><trkpt lat="39.7174043" lon="8.5051778"><ele>0.0</ele><time>2026-04-05T09:57:49.939Z</time></trkpt><trkpt lat="39.7173258" lon="8.5051317"><ele>0.0</ele><time>2026-04-05T09:57:50.941Z</time></trkpt><trkpt lat="39.717248" lon="8.5050828"><ele>0.0</ele><time>2026-04-05T09:57:51.94Z</time></trkpt><trkpt lat="39.7171733" lon="8.5050362"><ele>0.0</ele><time>2026-04-05T09:57:52.939Z</time></trkpt><trkpt lat="39.7170983" lon="8.5049861"><ele>0.0</ele><time>2026-04-05T09:57:53.94Z</time></trkpt><trkpt lat="39.7170219" lon="8.5049317"><ele>0.0</ele><time>2026-04-05T09:57:54.938Z</time></trkpt><trkpt lat="39.7169484" lon="8.5048755"><ele>0.0</ele><time>2026-04-05T09:57:55.941Z</time></trkpt><trkpt lat="39.7168745" lon="8.5048288"><ele>0.0</ele><time>2026-04-05T09:57:56.94Z</time></trkpt><trkpt lat="39.7168012" lon="8.5047819"><ele>0.0</ele><time>2026-04-05T09:57:57.939Z</time></trkpt><trkpt lat="39.7167262" lon="8.5047371"><ele>0.0</ele><time>2026-04-05T09:57:58.94Z</time></trkpt><trkpt lat="39.7166518" lon="8.5046862"><ele>0.0</ele><time>2026-04-05T09:57:59.94Z</time></trkpt><trkpt lat="39.7165735" lon="8.5046394"><ele>0.0</ele><time>2026-04-05T09:58:00.941Z</time></trkpt><trkpt lat="39.7165012" lon="8.5045902"><ele>0.0</ele><time>2026-04-05T09:58:01.94Z</time></trkpt><trkpt lat="39.7164252" lon="8.5045422"><ele>0.0</ele><time>2026-04-05T09:58:02.941Z</time></trkpt><trkpt lat="39.7163502" lon="8.5044934"><ele>0.0</ele><time>2026-04-05T09:58:03.94Z</time></trkpt><trkpt lat="39.7162791" lon="8.5044465"><ele>0.0</ele><time>2026-04-05T09:58:04.94Z</time></trkpt><trkpt lat="39.7162151" lon="8.5044044"><ele>0.0</ele><time>2026-04-05T09:58:05.94Z</time></trkpt><trkpt lat="39.7161538" lon="8.5043666"><ele>0.0</ele><time>2026-04-05T09:58:06.94Z</time></trkpt><trkpt lat="39.7160962" lon="8.5043258"><ele>0.0</ele><time>2026-04-05T09:58:07.94Z</time></trkpt><trkpt lat="39.7160397" lon="8.5042829"><ele>0.0</ele><time>2026-04-05T09:58:08.94Z</time></trkpt><trkpt lat="39.7159357" lon="8.5042098"><ele>0.0</ele><time>2026-04-05T09:58:10.941Z</time></trkpt><trkpt lat="39.7158762" lon="8.5041693"><ele>0.0</ele><time>2026-04-05T09:58:11.939Z</time></trkpt><trkpt lat="39.7158148" lon="8.5041271"><ele>0.0</ele><time>2026-04-05T09:58:12.94Z</time></trkpt><trkpt lat="39.7157551" lon="8.5040911"><ele>0.0</ele><time>2026-04-05T09:58:13.94Z</time></trkpt><trkpt lat="39.715643" lon="8.5040224"><ele>0.0</ele><time>2026-04-05T09:58:15.94Z</time></trkpt><trkpt lat="39.7155247" lon="8.5039503"><ele>0.0</ele><time>2026-04-05T09:58:17.94Z</time></trkpt><trkpt lat="39.7154652" lon="8.5039071"><ele>0.0</ele><time>2026-04-05T09:58:18.939Z</time></trkpt><trkpt lat="39.7154022" lon="8.503864"><ele>0.0</ele><time>2026-04-05T09:58:19.939Z</time></trkpt><trkpt lat="39.7153353" lon="8.5038212"><ele>0.0</ele><time>2026-04-05T09:58:20.94Z</time></trkpt><trkpt lat="39.715267" lon="8.5037749"><ele>0.0</ele><time>2026-04-05T09:58:21.94Z</time></trkpt><trkpt lat="39.7151941" lon="8.5037276"><ele>0.0</ele><time>2026-04-05T09:58:22.94Z</time></trkpt><trkpt lat="39.7151217" lon="8.5036787"><ele>0.0</ele><time>2026-04-05T09:58:23.94Z</time></trkpt><trkpt lat="39.7150517" lon="8.503635"><ele>0.0</ele><time>2026-04-05T09:58:24.941Z</time></trkpt><trkpt lat="39.7149909" lon="8.5035933"><ele>0.0</ele><time>2026-04-05T09:58:25.94Z</time></trkpt><trkpt lat="39.7149325" lon="8.503555"><ele>0.0</ele><time>2026-04-05T09:58:26.94Z</time></trkpt><trkpt lat="39.7148708" lon="8.5035152"><ele>0.0</ele><time>2026-04-05T09:58:27.94Z</time></trkpt><trkpt lat="39.7148072" lon="8.503472"><ele>0.0</ele><time>2026-04-05T09:58:28.94Z</time></trkpt><trkpt lat="39.7147401" lon="8.5034279"><ele>0.0</ele><time>2026-04-05T09:58:29.94Z</time></trkpt><trkpt lat="39.7146752" lon="8.5033824"><ele>0.0</ele><time>2026-04-05T09:58:30.94Z</time></trkpt><trkpt lat="39.7146173" lon="8.5033409"><ele>0.0</ele><time>2026-04-05T09:58:31.94Z</time></trkpt><trkpt lat="39.7145087" lon="8.5032695"><ele>0.0</ele><time>2026-04-05T09:58:33.94Z</time></trkpt><trkpt lat="39.7144227" lon="8.5032108"><ele>0.0</ele><time>2026-04-05T09:58:35.94Z</time></trkpt><trkpt lat="39.7143461" lon="8.5031635"><ele>0.0</ele><time>2026-04-05T09:58:37.94Z</time></trkpt><trkpt lat="39.714253" lon="8.5031094"><ele>0.16666666666666666</ele><time>2026-04-05T09:58:39.94Z</time></trkpt><trkpt lat="39.7141472" lon="8.5030259"><ele>0.3333333333333333</ele><time>2026-04-05T09:58:41.941Z</time></trkpt><trkpt lat="39.7140852" lon="8.502988"><ele>0.5</ele><time>2026-04-05T09:58:42.939Z</time></trkpt><trkpt lat="39.714022" lon="8.5029428"><ele>0.6666666666666666</ele><time>2026-04-05T09:58:43.941Z</time></trkpt><trkpt lat="39.7139593" lon="8.5028989"><ele>0.8333333333333333</ele><time>2026-04-05T09:58:44.94Z</time></trkpt><trkpt lat="39.7138939" lon="8.502857"><ele>1.0</ele><time>2026-04-05T09:58:45.94Z</time></trkpt><trkpt lat="39.7138308" lon="8.5028115"><ele>1.0</ele><time>2026-04-05T09:58:46.94Z</time></trkpt><trkpt lat="39.7137651" lon="8.5027663"><ele>0.9999999999999999</ele><time>2026-04-05T09:58:47.94Z</time></trkpt><trkpt lat="39.7136953" lon="8.502723"><ele>1.0</ele><time>2026-04-05T09:58:48.94Z</time></trkpt><trkpt lat="39.7136243" lon="8.5026819"><ele>1.0</ele><time>2026-04-05T09:58:49.94Z</time></trkpt><trkpt lat="39.713561" lon="8.5026414"><ele>0.9999999999999999</ele><time>2026-04-05T09:58:50.94Z</time></trkpt><trkpt lat="39.7134992" lon="8.5026026"><ele>1.0</ele><time>2026-04-05T09:58:51.94Z</time></trkpt><trkpt lat="39.7134379" lon="8.5025592"><ele>1.0</ele><time>2026-04-05T09:58:52.939Z</time></trkpt><trkpt lat="39.7133805" lon="8.50252"><ele>1.0</ele><time>2026-04-05T09:58:53.94Z</time></trkpt><trkpt lat="39.7132878" lon="8.5024573"><ele>1.0</ele><time>2026-04-05T09:58:55.94Z</time></trkpt><trkpt lat="39.7132196" lon="8.5024177"><ele>1.0</ele><time>2026-04-05T09:58:57.94Z</time></trkpt><trkpt lat="39.7131355" lon="8.5023738"><ele>1.0</ele><time>2026-04-05T09:59:00.94Z</time></trkpt><trkpt lat="39.7130674" lon="8.5023311"><ele>1.0</ele><time>2026-04-05T09:59:02.94Z</time></trkpt><trkpt lat="39.7129464" lon="8.5022338"><ele>1.0</ele><time>2026-04-05T09:59:05.941Z</time></trkpt><trkpt lat="39.712851" lon="8.5021714"><ele>1.0</ele><time>2026-04-05T09:59:07.94Z</time></trkpt><trkpt lat="39.7127617" lon="8.5021044"><ele>1.0</ele><time>2026-04-05T09:59:09.94Z</time></trkpt><trkpt lat="39.7126779" lon="8.5020405"><ele>1.0</ele><time>2026-04-05T09:59:11.94Z</time></trkpt><trkpt lat="39.712597" lon="8.5019833"><ele>1.0</ele><time>2026-04-05T09:59:13.94Z</time></trkpt><trkpt lat="39.7125356" lon="8.5019439"><ele>1.3333333333333333</ele><time>2026-04-05T09:59:15.94Z</time></trkpt><trkpt lat="39.7124879" lon="8.5018743"><ele>1.6666666666666665</ele><time>2026-04-05T09:59:17.939Z</time></trkpt><trkpt lat="39.71247" lon="8.5017531"><ele>2.0</ele><time>2026-04-05T09:59:19.94Z</time></trkpt><trkpt lat="39.712479" lon="8.5016619"><ele>2.3333333333333335</ele><time>2026-04-05T09:59:20.94Z</time></trkpt><trkpt lat="39.7124899" lon="8.5015506"><ele>2.6666666666666665</ele><time>2026-04-05T09:59:21.939Z</time></trkpt><trkpt lat="39.7125045" lon="8.5014321"><ele>3.0</ele><time>2026-04-05T09:59:22.94Z</time></trkpt><trkpt lat="39.7125242" lon="8.5013289"><ele>2.8333333333333335</ele><time>2026-04-05T09:59:23.939Z</time></trkpt><trkpt lat="39.7125477" lon="8.5012295"><ele>2.6666666666666665</ele><time>2026-04-05T09:59:24.941Z</time></trkpt><trkpt lat="39.71258" lon="8.5011265"><ele>2.5</ele><time>2026-04-05T09:59:25.94Z</time></trkpt><trkpt lat="39.7126209" lon="8.501024"><ele>2.333333333333333</ele><time>2026-04-05T09:59:26.941Z</time></trkpt><trkpt lat="39.7126653" lon="8.5009229"><ele>2.1666666666666665</ele><time>2026-04-05T09:59:27.939Z</time></trkpt><trkpt lat="39.7127132" lon="8.5008191"><ele>2.0</ele><time>2026-04-05T09:59:28.94Z</time></trkpt><trkpt lat="39.7127653" lon="8.5007178"><ele>1.8</ele><time>2026-04-05T09:59:29.94Z</time></trkpt><trkpt lat="39.7128215" lon="8.5006104"><ele>1.6</ele><time>2026-04-05T09:59:30.939Z</time></trkpt><trkpt lat="39.7128803" lon="8.5004965"><ele>1.4000000000000001</ele><time>2026-04-05T09:59:31.939Z</time></trkpt><trkpt lat="39.7129421" lon="8.5003836"><ele>1.2000000000000002</ele><time>2026-04-05T09:59:32.94Z</time></trkpt><trkpt lat="39.7130099" lon="8.5002694"><ele>1.0</ele><time>2026-04-05T09:59:33.94Z</time></trkpt><trkpt lat="39.7130808" lon="8.500154"><ele>1.75</ele><time>2026-04-05T09:59:34.939Z</time></trkpt><trkpt lat="39.713155" lon="8.5000326"><ele>2.5</ele><time>2026-04-05T09:59:35.94Z</time></trkpt><trkpt lat="39.7132256" lon="8.4999131"><ele>3.25</ele><time>2026-04-05T09:59:36.94Z</time></trkpt><trkpt lat="39.7132947" lon="8.4997978"><ele>4.0</ele><time>2026-04-05T09:59:37.94Z</time></trkpt><trkpt lat="39.7133624" lon="8.4996882"><ele>4.2</ele><time>2026-04-05T09:59:38.94Z</time></trkpt><trkpt lat="39.7134292" lon="8.4995803"><ele>4.4</ele><time>2026-04-05T09:59:39.939Z</time></trkpt><trkpt lat="39.7134886" lon="8.4994742"><ele>4.6</ele><time>2026-04-05T09:59:40.94Z</time></trkpt><trkpt lat="39.7135471" lon="8.4993658"><ele>4.8</ele><time>2026-04-05T09:59:41.941Z</time></trkpt><trkpt lat="39.7136013" lon="8.4992469"><ele>5.0</ele><time>2026-04-05T09:59:42.94Z</time></trkpt><trkpt lat="39.7136476" lon="8.4991233"><ele>4.2</ele><time>2026-04-05T09:59:43.94Z</time></trkpt><trkpt lat="39.7136951" lon="8.4990006"><ele>3.4</ele><time>2026-04-05T09:59:44.94Z</time></trkpt><trkpt lat="39.7137404" lon="8.4988834"><ele>2.6</ele><time>2026-04-05T09:59:45.939Z</time></trkpt><trkpt lat="39.7137802" lon="8.4987692"><ele>1.8</ele><time>2026-04-05T09:59:46.939Z</time></trkpt><trkpt lat="39.7138121" lon="8.4986547"><ele>1.0</ele><time>2026-04-05T09:59:47.94Z</time></trkpt><trkpt lat="39.7138314" lon="8.4985387"><ele>1.0</ele><time>2026-04-05T09:59:48.94Z</time></trkpt><trkpt lat="39.7138379" lon="8.4984156"><ele>1.0</ele><time>2026-04-05T09:59:49.94Z</time></trkpt><trkpt lat="39.7138348" lon="8.4982832"><ele>1.0</ele><time>2026-04-05T09:59:50.94Z</time></trkpt><trkpt lat="39.713826" lon="8.4981464"><ele>1.0</ele><time>2026-04-05T09:59:51.941Z</time></trkpt><trkpt lat="39.7138176" lon="8.4979969"><ele>1.0</ele><time>2026-04-05T09:59:52.94Z</time></trkpt><trkpt lat="39.7138175" lon="8.4978241"><ele>1.0</ele><time>2026-04-05T09:59:53.94Z</time></trkpt><trkpt lat="39.7138256" lon="8.4976533"><ele>1.0</ele><time>2026-04-05T09:59:54.939Z</time></trkpt><trkpt lat="39.713841" lon="8.4975028"><ele>1.0</ele><time>2026-04-05T09:59:55.94Z</time></trkpt><trkpt lat="39.7138602" lon="8.4973668"><ele>1.0</ele><time>2026-04-05T09:59:56.938Z</time></trkpt><trkpt lat="39.7138779" lon="8.4972374"><ele>1.0</ele><time>2026-04-05T09:59:57.94Z</time></trkpt><trkpt lat="39.7138886" lon="8.4971115"><ele>1.0</ele><time>2026-04-05T09:59:58.94Z</time></trkpt><trkpt lat="39.7138916" lon="8.4969888"><ele>1.0</ele><time>2026-04-05T09:59:59.94Z</time></trkpt><trkpt lat="39.71389" lon="8.4968641"><ele>1.0</ele><time>2026-04-05T10:00:00.94Z</time></trkpt><trkpt lat="39.7138783" lon="8.4967428"><ele>1.0</ele><time>2026-04-05T10:00:01.94Z</time></trkpt><trkpt lat="39.7138497" lon="8.4966239"><ele>0.8</ele><time>2026-04-05T10:00:02.94Z</time></trkpt><trkpt lat="39.7137995" lon="8.4965173"><ele>0.6000000000000001</ele><time>2026-04-05T10:00:03.94Z</time></trkpt><trkpt lat="39.7137328" lon="8.4964265"><ele>0.4</ele><time>2026-04-05T10:00:04.94Z</time></trkpt><trkpt lat="39.7136417" lon="8.496362"><ele>0.2</ele><time>2026-04-05T10:00:05.94Z</time></trkpt><trkpt lat="39.7135439" lon="8.4963081"><ele>0.0</ele><time>2026-04-05T10:00:06.94Z</time></trkpt><trkpt lat="39.713446" lon="8.496267"><ele>0.4</ele><time>2026-04-05T10:00:07.941Z</time></trkpt><trkpt lat="39.7133503" lon="8.4962333"><ele>0.8</ele><time>2026-04-05T10:00:08.94Z</time></trkpt><trkpt lat="39.7132581" lon="8.4962075"><ele>1.2000000000000002</ele><time>2026-04-05T10:00:09.939Z</time></trkpt><trkpt lat="39.7131673" lon="8.4962006"><ele>1.6</ele><time>2026-04-05T10:00:10.94Z</time></trkpt><trkpt lat="39.7130819" lon="8.4962067"><ele>2.0</ele><time>2026-04-05T10:00:11.94Z</time></trkpt><trkpt lat="39.7130023" lon="8.4962181"><ele>2.0</ele><time>2026-04-05T10:00:12.939Z</time></trkpt><trkpt lat="39.7129359" lon="8.4962193"><ele>2.0</ele><time>2026-04-05T10:00:13.94Z</time></trkpt><trkpt lat="39.7128281" lon="8.496183"><ele>2.0</ele><time>2026-04-05T10:00:15.94Z</time></trkpt><trkpt lat="39.7127531" lon="8.4961077"><ele>2.0</ele><time>2026-04-05T10:00:17.94Z</time></trkpt><trkpt lat="39.7126801" lon="8.4960394"><ele>2.0</ele><time>2026-04-05T10:00:22.94Z</time></trkpt><trkpt lat="39.7125733" lon="8.4961233"><ele>2.4000000000000004</ele><time>2026-04-05T10:00:24.94Z</time></trkpt><trkpt lat="39.7125088" lon="8.4962077"><ele>2.8000000000000003</ele><time>2026-04-05T10:00:25.94Z</time></trkpt><trkpt lat="39.7124389" lon="8.4963004"><ele>3.2</ele><time>2026-04-05T10:00:26.94Z</time></trkpt><trkpt lat="39.7123507" lon="8.4963949"><ele>3.6</ele><time>2026-04-05T10:00:27.939Z</time></trkpt><trkpt lat="39.712252" lon="8.496486"><ele>4.0</ele><time>2026-04-05T10:00:28.94Z</time></trkpt><trkpt lat="39.7121428" lon="8.4965852"><ele>4.0</ele><time>2026-04-05T10:00:29.94Z</time></trkpt><trkpt lat="39.7120277" lon="8.4966836"><ele>4.0</ele><time>2026-04-05T10:00:30.94Z</time></trkpt><trkpt lat="39.7119089" lon="8.4967849"><ele>4.0</ele><time>2026-04-05T10:00:31.94Z</time></trkpt><trkpt lat="39.7117891" lon="8.4968798"><ele>4.0</ele><time>2026-04-05T10:00:32.941Z</time></trkpt><trkpt lat="39.7116682" lon="8.4969799"><ele>4.5</ele><time>2026-04-05T10:00:33.94Z</time></trkpt><trkpt lat="39.7115483" lon="8.4970816"><ele>5.0</ele><time>2026-04-05T10:00:34.94Z</time></trkpt><trkpt lat="39.7114266" lon="8.4971816"><ele>5.5</ele><time>2026-04-05T10:00:35.94Z</time></trkpt><trkpt lat="39.7113037" lon="8.4972839"><ele>6.0</ele><time>2026-04-05T10:00:36.94Z</time></trkpt><trkpt lat="39.7111832" lon="8.4973845"><ele>7.25</ele><time>2026-04-05T10:00:37.94Z</time></trkpt><trkpt lat="39.7110604" lon="8.4974822"><ele>8.5</ele><time>2026-04-05T10:00:38.94Z</time></trkpt><trkpt lat="39.710936" lon="8.4975802"><ele>9.75</ele><time>2026-04-05T10:00:39.94Z</time></trkpt><trkpt lat="39.7108112" lon="8.4976803"><ele>11.0</ele><time>2026-04-05T10:00:40.94Z</time></trkpt><trkpt lat="39.7106874" lon="8.4977837"><ele>11.0</ele><time>2026-04-05T10:00:41.94Z</time></trkpt><trkpt lat="39.7105636" lon="8.4978884"><ele>11.0</ele><time>2026-04-05T10:00:42.941Z</time></trkpt><trkpt lat="39.7104398" lon="8.4979917"><ele>11.0</ele><time>2026-04-05T10:00:43.94Z</time></trkpt><trkpt lat="39.7103131" lon="8.498095"><ele>11.0</ele><time>2026-04-05T10:00:44.939Z</time></trkpt><trkpt lat="39.7101879" lon="8.4981964"><ele>10.666666666666666</ele><time>2026-04-05T10:00:45.94Z</time></trkpt><trkpt lat="39.7100555" lon="8.4983001"><ele>10.333333333333334</ele><time>2026-04-05T10:00:46.94Z</time></trkpt><trkpt lat="39.7099285" lon="8.498404"><ele>10.0</ele><time>2026-04-05T10:00:47.94Z</time></trkpt><trkpt lat="39.7097992" lon="8.4985076"><ele>10.0</ele><time>2026-04-05T10:00:48.94Z</time></trkpt><trkpt lat="39.7096695" lon="8.4986152"><ele>10.0</ele><time>2026-04-05T10:00:49.941Z</time></trkpt><trkpt lat="39.7095376" lon="8.4987252"><ele>10.0</ele><time>2026-04-05T10:00:50.939Z</time></trkpt><trkpt lat="39.7094061" lon="8.4988299"><ele>9.0</ele><time>2026-04-05T10:00:51.94Z</time></trkpt><trkpt lat="39.7092752" lon="8.4989393"><ele>8.0</ele><time>2026-04-05T10:00:52.94Z</time></trkpt><trkpt lat="39.709147" lon="8.4990432"><ele>7.0</ele><time>2026-04-05T10:00:53.941Z</time></trkpt><trkpt lat="39.7090189" lon="8.4991415"><ele>7.0</ele><time>2026-04-05T10:00:54.94Z</time></trkpt><trkpt lat="39.7088977" lon="8.4992417"><ele>7.0</ele><time>2026-04-05T10:00:55.94Z</time></trkpt><trkpt lat="39.7087782" lon="8.4993418"><ele>7.0</ele><time>2026-04-05T10:00:56.941Z</time></trkpt><trkpt lat="39.7086547" lon="8.4994373"><ele>7.0</ele><time>2026-04-05T10:00:57.939Z</time></trkpt><trkpt lat="39.7085296" lon="8.4995186"><ele>6.25</ele><time>2026-04-05T10:00:58.939Z</time></trkpt><trkpt lat="39.7083993" lon="8.4995895"><ele>5.5</ele><time>2026-04-05T10:00:59.94Z</time></trkpt><trkpt lat="39.7082644" lon="8.4996407"><ele>4.75</ele><time>2026-04-05T10:01:00.94Z</time></trkpt><trkpt lat="39.7081254" lon="8.499682"><ele>4.0</ele><time>2026-04-05T10:01:01.939Z</time></trkpt><trkpt lat="39.7079876" lon="8.4997164"><ele>4.0</ele><time>2026-04-05T10:01:02.94Z</time></trkpt><trkpt lat="39.7078479" lon="8.4997465"><ele>4.0</ele><time>2026-04-05T10:01:03.94Z</time></trkpt><trkpt lat="39.7077088" lon="8.4997679"><ele>4.0</ele><time>2026-04-05T10:01:04.94Z</time></trkpt><trkpt lat="39.7075737" lon="8.4997893"><ele>4.0</ele><time>2026-04-05T10:01:05.941Z</time></trkpt><trkpt lat="39.7074427" lon="8.4998143"><ele>5.0</ele><time>2026-04-05T10:01:06.939Z</time></trkpt><trkpt lat="39.7073166" lon="8.4998575"><ele>6.0</ele><time>2026-04-05T10:01:07.941Z</time></trkpt><trkpt lat="39.707194" lon="8.499919"><ele>7.0</ele><time>2026-04-05T10:01:08.94Z</time></trkpt><trkpt lat="39.7070792" lon="8.4999988"><ele>8.0</ele><time>2026-04-05T10:01:09.939Z</time></trkpt><trkpt lat="39.7069716" lon="8.5001033"><ele>8.75</ele><time>2026-04-05T10:01:10.94Z</time></trkpt><trkpt lat="39.7068723" lon="8.5002264"><ele>9.5</ele><time>2026-04-05T10:01:11.939Z</time></trkpt><trkpt lat="39.7067869" lon="8.5003662"><ele>10.25</ele><time>2026-04-05T10:01:12.94Z</time></trkpt><trkpt lat="39.7067126" lon="8.5005207"><ele>11.0</ele><time>2026-04-05T10:01:13.94Z</time></trkpt><trkpt lat="39.7066529" lon="8.5006852"><ele>11.25</ele><time>2026-04-05T10:01:14.94Z</time></trkpt><trkpt lat="39.7065987" lon="8.5008585"><ele>11.5</ele><time>2026-04-05T10:01:15.94Z</time></trkpt><trkpt lat="39.7065377" lon="8.5010272"><ele>11.75</ele><time>2026-04-05T10:01:16.94Z</time></trkpt><trkpt lat="39.7064607" lon="8.5011822"><ele>12.0</ele><time>2026-04-05T10:01:17.94Z</time></trkpt><trkpt lat="39.7063724" lon="8.5013212"><ele>12.0</ele><time>2026-04-05T10:01:18.94Z</time></trkpt><trkpt lat="39.7062721" lon="8.5014423"><ele>12.0</ele><time>2026-04-05T10:01:19.94Z</time></trkpt><trkpt lat="39.7061539" lon="8.5015407"><ele>12.0</ele><time>2026-04-05T10:01:20.94Z</time></trkpt><trkpt lat="39.7060234" lon="8.5016219"><ele>12.0</ele><time>2026-04-05T10:01:21.939Z</time></trkpt><trkpt lat="39.705882" lon="8.5016795"><ele>13.75</ele><time>2026-04-05T10:01:22.94Z</time></trkpt><trkpt lat="39.7057367" lon="8.5017219"><ele>15.5</ele><time>2026-04-05T10:01:23.94Z</time></trkpt><trkpt lat="39.7055925" lon="8.501758"><ele>17.25</ele><time>2026-04-05T10:01:24.94Z</time></trkpt><trkpt lat="39.7054468" lon="8.5017924"><ele>19.0</ele><time>2026-04-05T10:01:25.94Z</time></trkpt><trkpt lat="39.7053089" lon="8.5018274"><ele>20.0</ele><time>2026-04-05T10:01:26.939Z</time></trkpt><trkpt lat="39.705173" lon="8.5018632"><ele>21.0</ele><time>2026-04-05T10:01:27.94Z</time></trkpt><trkpt lat="39.7050466" lon="8.5019256"><ele>22.0</ele><time>2026-04-05T10:01:28.94Z</time></trkpt><trkpt lat="39.7049307" lon="8.5020124"><ele>23.0</ele><time>2026-04-05T10:01:29.94Z</time></trkpt><trkpt lat="39.704824" lon="8.5021158"><ele>20.5</ele><time>2026-04-05T10:01:30.94Z</time></trkpt><trkpt lat="39.7047245" lon="8.5022371"><ele>18.0</ele><time>2026-04-05T10:01:31.939Z</time></trkpt><trkpt lat="39.7046332" lon="8.5023654"><ele>15.5</ele><time>2026-04-05T10:01:32.94Z</time></trkpt><trkpt lat="39.7045491" lon="8.5025016"><ele>13.0</ele><time>2026-04-05T10:01:33.94Z</time></trkpt><trkpt lat="39.7044742" lon="8.5026452"><ele>12.75</ele><time>2026-04-05T10:01:34.94Z</time></trkpt><trkpt lat="39.7044052" lon="8.5027925"><ele>12.5</ele><time>2026-04-05T10:01:35.94Z</time></trkpt><trkpt lat="39.7043357" lon="8.5029448"><ele>12.25</ele><time>2026-04-05T10:01:36.94Z</time></trkpt><trkpt lat="39.7042653" lon="8.5030981"><ele>12.0</ele><time>2026-04-05T10:01:37.94Z</time></trkpt><trkpt lat="39.7041924" lon="8.5032524"><ele>12.0</ele><time>2026-04-05T10:01:38.94Z</time></trkpt><trkpt lat="39.7041186" lon="8.5034105"><ele>12.0</ele><time>2026-04-05T10:01:39.94Z</time></trkpt><trkpt lat="39.7040411" lon="8.5035733"><ele>12.0</ele><time>2026-04-05T10:01:40.94Z</time></trkpt><trkpt lat="39.7039606" lon="8.5037424"><ele>12.0</ele><time>2026-04-05T10:01:41.941Z</time></trkpt><trkpt lat="39.70388" lon="8.503916"><ele>11.333333333333334</ele><time>2026-04-05T10:01:42.94Z</time></trkpt><trkpt lat="39.7037969" lon="8.504092"><ele>10.666666666666668</ele><time>2026-04-05T10:01:43.94Z</time></trkpt><trkpt lat="39.7037091" lon="8.5042705"><ele>10.0</ele><time>2026-04-05T10:01:44.94Z</time></trkpt><trkpt lat="39.7036186" lon="8.504454"><ele>9.333333333333334</ele><time>2026-04-05T10:01:45.939Z</time></trkpt><trkpt lat="39.7035307" lon="8.5046384"><ele>8.666666666666666</ele><time>2026-04-05T10:01:46.94Z</time></trkpt><trkpt lat="39.7034421" lon="8.5048273"><ele>8.0</ele><time>2026-04-05T10:01:47.94Z</time></trkpt><trkpt lat="39.7033534" lon="8.5050124"><ele>8.0</ele><time>2026-04-05T10:01:48.94Z</time></trkpt><trkpt lat="39.7032632" lon="8.5051976"><ele>8.0</ele><time>2026-04-05T10:01:49.94Z</time></trkpt><trkpt lat="39.7031742" lon="8.505382"><ele>8.0</ele><time>2026-04-05T10:01:50.94Z</time></trkpt><trkpt lat="39.7030849" lon="8.5055646"><ele>8.0</ele><time>2026-04-05T10:01:51.94Z</time></trkpt><trkpt lat="39.7029921" lon="8.5057516"><ele>8.0</ele><time>2026-04-05T10:01:52.94Z</time></trkpt><trkpt lat="39.7029006" lon="8.5059339"><ele>8.0</ele><time>2026-04-05T10:01:53.94Z</time></trkpt><trkpt lat="39.7028126" lon="8.5061112"><ele>9.333333333333332</ele><time>2026-04-05T10:01:54.94Z</time></trkpt><trkpt lat="39.7027294" lon="8.5062885"><ele>10.666666666666666</ele><time>2026-04-05T10:01:55.94Z</time></trkpt><trkpt lat="39.7026449" lon="8.5064669"><ele>12.0</ele><time>2026-04-05T10:01:56.94Z</time></trkpt><trkpt lat="39.7025608" lon="8.5066404"><ele>12.0</ele><time>2026-04-05T10:01:57.94Z</time></trkpt><trkpt lat="39.702482" lon="8.5068024"><ele>12.0</ele><time>2026-04-05T10:01:58.94Z</time></trkpt><trkpt lat="39.7024143" lon="8.5069443"><ele>12.0</ele><time>2026-04-05T10:01:59.94Z</time></trkpt><trkpt lat="39.7023576" lon="8.5070638"><ele>12.0</ele><time>2026-04-05T10:02:00.94Z</time></trkpt><trkpt lat="39.7023119" lon="8.5071583"><ele>12.0</ele><time>2026-04-05T10:02:01.938Z</time></trkpt><trkpt lat="39.7022742" lon="8.5072296"><ele>12.0</ele><time>2026-04-05T10:02:02.939Z</time></trkpt><trkpt lat="39.7022144" lon="8.5073104"><ele>12.0</ele><time>2026-04-05T10:02:04.941Z</time></trkpt><trkpt lat="39.7021443" lon="8.5072961"><ele>12.0</ele><time>2026-04-05T10:02:08.94Z</time></trkpt><trkpt lat="39.7021165" lon="8.5072123"><ele>12.0</ele><time>2026-04-05T10:02:17.94Z</time></trkpt><trkpt lat="39.7020932" lon="8.5071339"><ele>12.0</ele><time>2026-04-05T10:02:21.94Z</time></trkpt><trkpt lat="39.7019522" lon="8.5069553"><ele>12.8</ele><time>2026-04-05T10:02:31.94Z</time></trkpt><trkpt lat="39.7018434" lon="8.5068812"><ele>13.6</ele><time>2026-04-05T10:02:33.94Z</time></trkpt><trkpt lat="39.7017802" lon="8.5068603"><ele>14.400000000000002</ele><time>2026-04-05T10:02:34.94Z</time></trkpt><trkpt lat="39.7016791" lon="8.5068462"><ele>15.200000000000001</ele><time>2026-04-05T10:02:36.94Z</time></trkpt><trkpt lat="39.7015767" lon="8.5068318"><ele>16.0</ele><time>2026-04-05T10:02:38.94Z</time></trkpt><trkpt lat="39.7014704" lon="8.5068179"><ele>16.0</ele><time>2026-04-05T10:02:40.94Z</time></trkpt><trkpt lat="39.7013594" lon="8.5068075"><ele>16.0</ele><time>2026-04-05T10:02:42.94Z</time></trkpt><trkpt lat="39.7012545" lon="8.5067921"><ele>16.0</ele><time>2026-04-05T10:02:44.94Z</time></trkpt><trkpt lat="39.7011562" lon="8.5067747"><ele>16.0</ele><time>2026-04-05T10:02:46.94Z</time></trkpt><trkpt lat="39.7010732" lon="8.5067536"><ele>16.0</ele><time>2026-04-05T10:02:48.94Z</time></trkpt><trkpt lat="39.7009932" lon="8.5067243"><ele>15.999999999999998</ele><time>2026-04-05T10:02:50.939Z</time></trkpt><trkpt lat="39.7009222" lon="8.5066773"><ele>16.0</ele><time>2026-04-05T10:02:52.94Z</time></trkpt><trkpt lat="39.7008566" lon="8.5065898"><ele>16.0</ele><time>2026-04-05T10:02:55.94Z</time></trkpt><trkpt lat="39.7008216" lon="8.5064949"><ele>16.0</ele><time>2026-04-05T10:02:57.94Z</time></trkpt><trkpt lat="39.7007382" lon="8.5064175"><ele>15.999999999999998</ele><time>2026-04-05T10:02:59.94Z</time></trkpt><trkpt lat="39.7006605" lon="8.5063582"><ele>16.0</ele><time>2026-04-05T10:03:01.94Z</time></trkpt><trkpt lat="39.7005863" lon="8.5062976"><ele>15.999999999999998</ele><time>2026-04-05T10:03:03.94Z</time></trkpt><trkpt lat="39.7005209" lon="8.506248"><ele>16.0</ele><time>2026-04-05T10:03:05.94Z</time></trkpt><trkpt lat="39.7004478" lon="8.5062041"><ele>16.0</ele><time>2026-04-05T10:03:07.94Z</time></trkpt><trkpt lat="39.7003647" lon="8.5061875"><ele>16.0</ele><time>2026-04-05T10:03:09.939Z</time></trkpt><trkpt lat="39.7002712" lon="8.5061966"><ele>15.999999999999998</ele><time>2026-04-05T10:03:11.939Z</time></trkpt><trkpt lat="39.7001726" lon="8.5061995"><ele>16.0</ele><time>2026-04-05T10:03:13.94Z</time></trkpt><trkpt lat="39.7000691" lon="8.506203"><ele>16.2</ele><time>2026-04-05T10:03:15.939Z</time></trkpt><trkpt lat="39.6999626" lon="8.5062062"><ele>16.400000000000002</ele><time>2026-04-05T10:03:17.94Z</time></trkpt><trkpt lat="39.6998576" lon="8.5062162"><ele>16.6</ele><time>2026-04-05T10:03:19.94Z</time></trkpt><trkpt lat="39.6997679" lon="8.5062281"><ele>16.8</ele><time>2026-04-05T10:03:21.939Z</time></trkpt><trkpt lat="39.6996773" lon="8.5062376"><ele>17.0</ele><time>2026-04-05T10:03:23.94Z</time></trkpt><trkpt lat="39.6995813" lon="8.5062303"><ele>17.0</ele><time>2026-04-05T10:03:25.94Z</time></trkpt><trkpt lat="39.6994865" lon="8.5062054"><ele>17.0</ele><time>2026-04-05T10:03:27.94Z</time></trkpt><trkpt lat="39.6993917" lon="8.5061962"><ele>17.0</ele><time>2026-04-05T10:03:29.94Z</time></trkpt><trkpt lat="39.6992957" lon="8.5061806"><ele>17.0</ele><time>2026-04-05T10:03:31.94Z</time></trkpt><trkpt lat="39.6992107" lon="8.5061806"><ele>17.0</ele><time>2026-04-05T10:03:34.94Z</time></trkpt><trkpt lat="39.6991296" lon="8.5061383"><ele>17.6</ele><time>2026-04-05T10:03:36.838Z</time></trkpt><trkpt lat="39.6990442" lon="8.506075"><ele>18.2</ele><time>2026-04-05T10:03:38.94Z</time></trkpt><trkpt lat="39.6989895" lon="8.5059786"><ele>18.8</ele><time>2026-04-05T10:03:40.939Z</time></trkpt><trkpt lat="39.6989438" lon="8.5058689"><ele>19.4</ele><time>2026-04-05T10:03:42.94Z</time></trkpt><trkpt lat="39.6988922" lon="8.505768"><ele>20.0</ele><time>2026-04-05T10:03:44.94Z</time></trkpt><trkpt lat="39.6988388" lon="8.5056923"><ele>20.0</ele><time>2026-04-05T10:03:46.939Z</time></trkpt><trkpt lat="39.6987907" lon="8.5056339"><ele>20.0</ele><time>2026-04-05T10:03:48.94Z</time></trkpt><trkpt lat="39.6987392" lon="8.5055824"><ele>20.0</ele><time>2026-04-05T10:03:50.939Z</time></trkpt><trkpt lat="39.6986733" lon="8.5055725"><ele>20.0</ele><time>2026-04-05T10:03:53.861Z</time></trkpt><trkpt lat="39.6986038" lon="8.5054896"><ele>20.0</ele><time>2026-04-05T10:03:54.939Z</time></trkpt><trkpt lat="39.6985209" lon="8.5054309"><ele>20.0</ele><time>2026-04-05T10:03:56.94Z</time></trkpt><trkpt lat="39.6984379" lon="8.5053852"><ele>20.333333333333336</ele><time>2026-04-05T10:03:58.94Z</time></trkpt><trkpt lat="39.6983542" lon="8.5053487"><ele>20.666666666666668</ele><time>2026-04-05T10:04:00.94Z</time></trkpt><trkpt lat="39.6982742" lon="8.50531"><ele>21.0</ele><time>2026-04-05T10:04:02.94Z</time></trkpt><trkpt lat="39.6981956" lon="8.5052778"><ele>21.333333333333332</ele><time>2026-04-05T10:04:04.939Z</time></trkpt><trkpt lat="39.6981048" lon="8.5052273"><ele>21.666666666666664</ele><time>2026-04-05T10:04:06.94Z</time></trkpt><trkpt lat="39.6980192" lon="8.5051863"><ele>22.0</ele><time>2026-04-05T10:04:08.939Z</time></trkpt><trkpt lat="39.6979449" lon="8.5051352"><ele>22.0</ele><time>2026-04-05T10:04:10.94Z</time></trkpt><trkpt lat="39.6978787" lon="8.5050857"><ele>22.0</ele><time>2026-04-05T10:04:12.94Z</time></trkpt><trkpt lat="39.6978191" lon="8.5050372"><ele>22.0</ele><time>2026-04-05T10:04:14.94Z</time></trkpt><trkpt lat="39.6977423" lon="8.504998"><ele>22.0</ele><time>2026-04-05T10:04:17.939Z</time></trkpt><trkpt lat="39.6976845" lon="8.5049025"><ele>22.0</ele><time>2026-04-05T10:04:20.94Z</time></trkpt><trkpt lat="39.6976721" lon="8.5047834"><ele>22.0</ele><time>2026-04-05T10:04:23.94Z</time></trkpt><trkpt lat="39.6976911" lon="8.5046957"><ele>22.285714285714285</ele><time>2026-04-05T10:04:25.94Z</time></trkpt><trkpt lat="39.6977212" lon="8.5046118"><ele>22.57142857142857</ele><time>2026-04-05T10:04:27.939Z</time></trkpt><trkpt lat="39.697741" lon="8.5045293"><ele>22.857142857142854</ele><time>2026-04-05T10:04:29.926Z</time></trkpt><trkpt lat="39.6977599" lon="8.5044145"><ele>23.142857142857142</ele><time>2026-04-05T10:04:32.94Z</time></trkpt><trkpt lat="39.6977652" lon="8.5043141"><ele>23.428571428571427</ele><time>2026-04-05T10:04:35.94Z</time></trkpt><trkpt lat="39.6977203" lon="8.5042401"><ele>23.71428571428571</ele><time>2026-04-05T10:04:38.878Z</time></trkpt><trkpt lat="39.6976554" lon="8.5042244"><ele>24.0</ele><time>2026-04-05T10:04:40.939Z</time></trkpt><trkpt lat="39.6975823" lon="8.5042137"><ele>24.0</ele><time>2026-04-05T10:04:42.94Z</time></trkpt><trkpt lat="39.6974844" lon="8.5041831"><ele>24.0</ele><time>2026-04-05T10:04:45.94Z</time></trkpt><trkpt lat="39.6973999" lon="8.5041752"><ele>24.0</ele><time>2026-04-05T10:04:47.939Z</time></trkpt><trkpt lat="39.6973252" lon="8.5041549"><ele>24.0</ele><time>2026-04-05T10:04:49.938Z</time></trkpt><trkpt lat="39.697257" lon="8.5041372"><ele>24.0</ele><time>2026-04-05T10:04:51.94Z</time></trkpt><trkpt lat="39.6971911" lon="8.5041211"><ele>24.0</ele><time>2026-04-05T10:04:53.939Z</time></trkpt><trkpt lat="39.6971274" lon="8.5041052"><ele>24.0</ele><time>2026-04-05T10:04:55.9Z</time></trkpt><trkpt lat="39.697052" lon="8.5041074"><ele>24.0</ele><time>2026-04-05T10:04:58.94Z</time></trkpt><trkpt lat="39.6969681" lon="8.5040993"><ele>24.0</ele><time>2026-04-05T10:05:01.94Z</time></trkpt><trkpt lat="39.6968989" lon="8.5040945"><ele>24.0</ele><time>2026-04-05T10:05:03.846Z</time></trkpt><trkpt lat="39.6968212" lon="8.5041196"><ele>24.0</ele><time>2026-04-05T10:05:05.94Z</time></trkpt><trkpt lat="39.696758" lon="8.5041396"><ele>24.0</ele><time>2026-04-05T10:05:07.94Z</time></trkpt><trkpt lat="39.6966723" lon="8.5041627"><ele>23.999999999999996</ele><time>2026-04-05T10:05:10.94Z</time></trkpt><trkpt lat="39.6966196" lon="8.504215"><ele>24.0</ele><time>2026-04-05T10:05:12.94Z</time></trkpt><trkpt lat="39.6965637" lon="8.5042673"><ele>24.0</ele><time>2026-04-05T10:05:14.94Z</time></trkpt><trkpt lat="39.6964963" lon="8.5043084"><ele>24.0</ele><time>2026-04-05T10:05:16.939Z</time></trkpt><trkpt lat="39.6964278" lon="8.5043474"><ele>24.0</ele><time>2026-04-05T10:05:18.942Z</time></trkpt><trkpt lat="39.6963658" lon="8.5043964"><ele>23.999999999999996</ele><time>2026-04-05T10:05:20.94Z</time></trkpt><trkpt lat="39.6963047" lon="8.5044468"><ele>24.0</ele><time>2026-04-05T10:05:22.94Z</time></trkpt><trkpt lat="39.6962444" lon="8.504496"><ele>23.999999999999996</ele><time>2026-04-05T10:05:24.843Z</time></trkpt><trkpt lat="39.6961836" lon="8.5045568"><ele>24.0</ele><time>2026-04-05T10:05:26.94Z</time></trkpt><trkpt lat="39.6961265" lon="8.5046088"><ele>24.0</ele><time>2026-04-05T10:05:28.846Z</time></trkpt><trkpt lat="39.6960734" lon="8.5046575"><ele>24.0</ele><time>2026-04-05T10:05:30.94Z</time></trkpt><trkpt lat="39.6960162" lon="8.5046989"><ele>24.0</ele><time>2026-04-05T10:05:32.94Z</time></trkpt><trkpt lat="39.6959551" lon="8.5047208"><ele>23.999999999999996</ele><time>2026-04-05T10:05:34.806Z</time></trkpt><trkpt lat="39.6958795" lon="8.5047082"><ele>24.0</ele><time>2026-04-05T10:05:36.94Z</time></trkpt><trkpt lat="39.6958096" lon="8.504681"><ele>24.0</ele><time>2026-04-05T10:05:38.94Z</time></trkpt><trkpt lat="39.695744" lon="8.5046531"><ele>24.0</ele><time>2026-04-05T10:05:40.94Z</time></trkpt><trkpt lat="39.6956658" lon="8.5046156"><ele>24.0</ele><time>2026-04-05T10:05:43.94Z</time></trkpt><trkpt lat="39.6955878" lon="8.5045863"><ele>24.0</ele><time>2026-04-05T10:05:46.94Z</time></trkpt><trkpt lat="39.6955165" lon="8.5045673"><ele>24.0</ele><time>2026-04-05T10:05:49.939Z</time></trkpt><trkpt lat="39.6954341" lon="8.5046124"><ele>24.0</ele><time>2026-04-05T10:05:52.939Z</time></trkpt><trkpt lat="39.6953724" lon="8.5046447"><ele>23.999999999999996</ele><time>2026-04-05T10:05:54.939Z</time></trkpt><trkpt lat="39.695305" lon="8.5046622"><ele>24.0</ele><time>2026-04-05T10:05:56.939Z</time></trkpt><trkpt lat="39.6952381" lon="8.5046719"><ele>24.0</ele><time>2026-04-05T10:05:58.94Z</time></trkpt><trkpt lat="39.6951649" lon="8.5046874"><ele>24.0</ele><time>2026-04-05T10:06:01.938Z</time></trkpt><trkpt lat="39.6950959" lon="8.5047328"><ele>24.0</ele><time>2026-04-05T10:06:13.939Z</time></trkpt><trkpt lat="39.6950287" lon="8.5047605"><ele>23.999999999999996</ele><time>2026-04-05T10:06:16.94Z</time></trkpt><trkpt lat="39.6949685" lon="8.5047907"><ele>24.0</ele><time>2026-04-05T10:06:18.94Z</time></trkpt><trkpt lat="39.6949049" lon="8.5048258"><ele>23.285714285714285</ele><time>2026-04-05T10:06:20.939Z</time></trkpt><trkpt lat="39.6948485" lon="8.5048623"><ele>22.57142857142857</ele><time>2026-04-05T10:06:22.94Z</time></trkpt><trkpt lat="39.6947722" lon="8.5049126"><ele>21.857142857142854</ele><time>2026-04-05T10:06:25.94Z</time></trkpt><trkpt lat="39.6947145" lon="8.504955"><ele>21.142857142857142</ele><time>2026-04-05T10:06:28.939Z</time></trkpt><trkpt lat="39.6946575" lon="8.5050016"><ele>20.42857142857143</ele><time>2026-04-05T10:06:31.939Z</time></trkpt><trkpt lat="39.6945821" lon="8.5050442"><ele>19.71428571428571</ele><time>2026-04-05T10:06:34.939Z</time></trkpt><trkpt lat="39.6945068" lon="8.5050817"><ele>19.0</ele><time>2026-04-05T10:06:37.94Z</time></trkpt><trkpt lat="39.6944633" lon="8.5051437"><ele>18.857142857142858</ele><time>2026-04-05T10:06:41.94Z</time></trkpt><trkpt lat="39.6944027" lon="8.505198"><ele>18.714285714285715</ele><time>2026-04-05T10:06:45.939Z</time></trkpt><trkpt lat="39.6943429" lon="8.5052737"><ele>18.571428571428573</ele><time>2026-04-05T10:06:49.939Z</time></trkpt><trkpt lat="39.694284" lon="8.505333"><ele>18.42857142857143</ele><time>2026-04-05T10:06:52.938Z</time></trkpt><trkpt lat="39.6942071" lon="8.5053669"><ele>18.285714285714285</ele><time>2026-04-05T10:06:58.739Z</time></trkpt><trkpt lat="39.694156" lon="8.505305"><ele>18.142857142857146</ele><time>2026-04-05T10:07:02.939Z</time></trkpt><trkpt lat="39.6940995" lon="8.5052627"><ele>18.0</ele><time>2026-04-05T10:07:08.94Z</time></trkpt><trkpt lat="39.6939899" lon="8.5051785"><ele>18.0</ele><time>2026-04-05T10:07:12.94Z</time></trkpt><trkpt lat="39.6939263" lon="8.5051363"><ele>18.0</ele><time>2026-04-05T10:07:13.938Z</time></trkpt><trkpt lat="39.6938674" lon="8.5051056"><ele>18.0</ele><time>2026-04-05T10:07:14.94Z</time></trkpt><trkpt lat="39.6937678" lon="8.5050501"><ele>18.0</ele><time>2026-04-05T10:07:16.94Z</time></trkpt><trkpt lat="39.6936803" lon="8.5049809"><ele>18.0</ele><time>2026-04-05T10:07:18.94Z</time></trkpt><trkpt lat="39.6936" lon="8.5048984"><ele>18.0</ele><time>2026-04-05T10:07:20.939Z</time></trkpt><trkpt lat="39.6935312" lon="8.5047818"><ele>18.6</ele><time>2026-04-05T10:07:22.938Z</time></trkpt><trkpt lat="39.6934606" lon="8.5046674"><ele>19.200000000000003</ele><time>2026-04-05T10:07:24.938Z</time></trkpt><trkpt lat="39.6933973" lon="8.5045551"><ele>19.8</ele><time>2026-04-05T10:07:26.94Z</time></trkpt><trkpt lat="39.6933344" lon="8.5044471"><ele>20.400000000000002</ele><time>2026-04-05T10:07:28.939Z</time></trkpt><trkpt lat="39.6932694" lon="8.5043448"><ele>21.0</ele><time>2026-04-05T10:07:30.939Z</time></trkpt><trkpt lat="39.6931972" lon="8.5042532"><ele>21.0</ele><time>2026-04-05T10:07:32.939Z</time></trkpt><trkpt lat="39.6931181" lon="8.5041694"><ele>21.0</ele><time>2026-04-05T10:07:34.939Z</time></trkpt><trkpt lat="39.6930316" lon="8.5040909"><ele>21.0</ele><time>2026-04-05T10:07:36.94Z</time></trkpt><trkpt lat="39.6929412" lon="8.504011"><ele>21.0</ele><time>2026-04-05T10:07:38.94Z</time></trkpt><trkpt lat="39.6928503" lon="8.5039352"><ele>21.0</ele><time>2026-04-05T10:07:40.939Z</time></trkpt><trkpt lat="39.6927642" lon="8.5038643"><ele>21.166666666666668</ele><time>2026-04-05T10:07:42.939Z</time></trkpt><trkpt lat="39.6926797" lon="8.5037944"><ele>21.333333333333332</ele><time>2026-04-05T10:07:44.939Z</time></trkpt><trkpt lat="39.6926038" lon="8.5037327"><ele>21.5</ele><time>2026-04-05T10:07:46.939Z</time></trkpt><trkpt lat="39.692538" lon="8.5036737"><ele>21.666666666666664</ele><time>2026-04-05T10:07:48.94Z</time></trkpt><trkpt lat="39.6924809" lon="8.5036175"><ele>21.833333333333332</ele><time>2026-04-05T10:07:50.939Z</time></trkpt><trkpt lat="39.6924234" lon="8.5035613"><ele>22.0</ele><time>2026-04-05T10:07:52.938Z</time></trkpt><trkpt lat="39.6923447" lon="8.5035094"><ele>22.142857142857142</ele><time>2026-04-05T10:07:55.938Z</time></trkpt><trkpt lat="39.6922682" lon="8.503473"><ele>22.285714285714285</ele><time>2026-04-05T10:07:57.933Z</time></trkpt><trkpt lat="39.6922191" lon="8.5033935"><ele>22.42857142857143</ele><time>2026-04-05T10:07:59.918Z</time></trkpt><trkpt lat="39.6921799" lon="8.5033145"><ele>22.57142857142857</ele><time>2026-04-05T10:08:01.938Z</time></trkpt><trkpt lat="39.6921418" lon="8.503244"><ele>22.71428571428571</ele><time>2026-04-05T10:08:03.939Z</time></trkpt><trkpt lat="39.6921024" lon="8.5031737"><ele>22.857142857142858</ele><time>2026-04-05T10:08:05.939Z</time></trkpt><trkpt lat="39.692057" lon="8.5031043"><ele>23.0</ele><time>2026-04-05T10:08:07.939Z</time></trkpt><trkpt lat="39.6920078" lon="8.5030354"><ele>23.0</ele><time>2026-04-05T10:08:09.939Z</time></trkpt><trkpt lat="39.6919706" lon="8.5029579"><ele>23.0</ele><time>2026-04-05T10:08:11.94Z</time></trkpt><trkpt lat="39.69194" lon="8.5028842"><ele>23.0</ele><time>2026-04-05T10:08:13.831Z</time></trkpt><trkpt lat="39.6919118" lon="8.5027666"><ele>23.0</ele><time>2026-04-05T10:08:16.95Z</time></trkpt><trkpt lat="39.6918588" lon="8.5026914"><ele>23.0</ele><time>2026-04-05T10:08:24.939Z</time></trkpt><trkpt lat="39.6918192" lon="8.5026084"><ele>23.0</ele><time>2026-04-05T10:08:27.518Z</time></trkpt><trkpt lat="39.6917808" lon="8.5025201"><ele>23.5</ele><time>2026-04-05T10:08:29.939Z</time></trkpt><trkpt lat="39.691743" lon="8.5024527"><ele>24.0</ele><time>2026-04-05T10:08:31.939Z</time></trkpt><trkpt lat="39.6916709" lon="8.5024009"><ele>24.5</ele><time>2026-04-05T10:08:34.939Z</time></trkpt><trkpt lat="39.6915979" lon="8.5023514"><ele>25.0</ele><time>2026-04-05T10:08:37.775Z</time></trkpt><trkpt lat="39.6915493" lon="8.5022631"><ele>25.499999999999996</ele><time>2026-04-05T10:08:45.939Z</time></trkpt><trkpt lat="39.6915513" lon="8.5021626"><ele>26.0</ele><time>2026-04-05T10:08:48.939Z</time></trkpt><trkpt lat="39.6915628" lon="8.5020806"><ele>26.499999999999996</ele><time>2026-04-05T10:08:50.939Z</time></trkpt><trkpt lat="39.6914706" lon="8.5020104"><ele>27.0</ele><time>2026-04-05T10:08:52.939Z</time></trkpt><trkpt lat="39.6913872" lon="8.502009"><ele>27.5</ele><time>2026-04-05T10:08:53.939Z</time></trkpt><trkpt lat="39.6913207" lon="8.5019438"><ele>28.0</ele><time>2026-04-05T10:08:55.939Z</time></trkpt><trkpt lat="39.6912711" lon="8.5018782"><ele>28.499999999999996</ele><time>2026-04-05T10:08:57.939Z</time></trkpt><trkpt lat="39.6912192" lon="8.5018226"><ele>29.0</ele><time>2026-04-05T10:08:59.939Z</time></trkpt><trkpt lat="39.6911707" lon="8.5017652"><ele>29.000000000000004</ele><time>2026-04-05T10:09:01.94Z</time></trkpt><trkpt lat="39.6911255" lon="8.5017081"><ele>29.0</ele><time>2026-04-05T10:09:03.871Z</time></trkpt><trkpt lat="39.6910723" lon="8.5016632"><ele>29.000000000000004</ele><time>2026-04-05T10:09:05.939Z</time></trkpt><trkpt lat="39.6909894" lon="8.5016139"><ele>29.000000000000004</ele><time>2026-04-05T10:09:08.939Z</time></trkpt><trkpt lat="39.690914" lon="8.5015705"><ele>29.0</ele><time>2026-04-05T10:09:11.939Z</time></trkpt><trkpt lat="39.6908451" lon="8.5015348"><ele>29.000000000000004</ele><time>2026-04-05T10:09:14.911Z</time></trkpt><trkpt lat="39.6907822" lon="8.5014847"><ele>29.000000000000004</ele><time>2026-04-05T10:09:17.779Z</time></trkpt><trkpt lat="39.6907292" lon="8.5013892"><ele>30.000000000000004</ele><time>2026-04-05T10:09:20.939Z</time></trkpt><trkpt lat="39.6906845" lon="8.5013054"><ele>31.0</ele><time>2026-04-05T10:09:23.938Z</time></trkpt><trkpt lat="39.6906538" lon="8.5012224"><ele>32.0</ele><time>2026-04-05T10:09:26.939Z</time></trkpt><trkpt lat="39.6906348" lon="8.5011405"><ele>33.0</ele><time>2026-04-05T10:09:31.878Z</time></trkpt><trkpt lat="39.6905922" lon="8.5010703"><ele>34.0</ele><time>2026-04-05T10:09:35.939Z</time></trkpt><trkpt lat="39.6905345" lon="8.5010181"><ele>35.00000000000001</ele><time>2026-04-05T10:09:38.939Z</time></trkpt><trkpt lat="39.6904698" lon="8.5009639"><ele>36.0</ele><time>2026-04-05T10:09:41.938Z</time></trkpt><trkpt lat="39.6904031" lon="8.5009309"><ele>36.28571428571429</ele><time>2026-04-05T10:09:44.939Z</time></trkpt><trkpt lat="39.6903377" lon="8.5008838"><ele>36.57142857142857</ele><time>2026-04-05T10:09:48.94Z</time></trkpt><trkpt lat="39.6902955" lon="8.5008179"><ele>36.85714285714286</ele><time>2026-04-05T10:09:55.939Z</time></trkpt><trkpt lat="39.6902494" lon="8.5007467"><ele>37.142857142857146</ele><time>2026-04-05T10:10:01.938Z</time></trkpt><trkpt lat="39.6902061" lon="8.5006772"><ele>37.42857142857143</ele><time>2026-04-05T10:10:05.938Z</time></trkpt><trkpt lat="39.6901634" lon="8.5006138"><ele>37.714285714285715</ele><time>2026-04-05T10:10:10.939Z</time></trkpt><trkpt lat="39.6901077" lon="8.5005372"><ele>38.0</ele><time>2026-04-05T10:10:14.858Z</time></trkpt><trkpt lat="39.6900604" lon="8.5004464"><ele>38.0</ele><time>2026-04-05T10:10:17.94Z</time></trkpt><trkpt lat="39.6900131" lon="8.5003713"><ele>38.0</ele><time>2026-04-05T10:10:20.939Z</time></trkpt><trkpt lat="39.6899621" lon="8.5002974"><ele>38.0</ele><time>2026-04-05T10:10:23.938Z</time></trkpt><trkpt lat="39.689914" lon="8.500238"><ele>38.0</ele><time>2026-04-05T10:10:26.939Z</time></trkpt><trkpt lat="39.6898747" lon="8.5001572"><ele>38.0</ele><time>2026-04-05T10:10:29.939Z</time></trkpt><trkpt lat="39.689842" lon="8.5000569"><ele>38.0</ele><time>2026-04-05T10:10:32.939Z</time></trkpt><trkpt lat="39.689808" lon="8.4999526"><ele>38.0</ele><time>2026-04-05T10:10:35.939Z</time></trkpt><trkpt lat="39.6897869" lon="8.4998581"><ele>38.0</ele><time>2026-04-05T10:10:38.938Z</time></trkpt><trkpt lat="39.6897792" lon="8.4997695"><ele>38.0</ele><time>2026-04-05T10:10:41.939Z</time></trkpt><trkpt lat="39.6897794" lon="8.4996601"><ele>38.0</ele><time>2026-04-05T10:10:45.938Z</time></trkpt><trkpt lat="39.6897821" lon="8.4995682"><ele>38.0</ele><time>2026-04-05T10:10:48.938Z</time></trkpt><trkpt lat="39.6897835" lon="8.49947"><ele>38.0</ele><time>2026-04-05T10:10:51.939Z</time></trkpt><trkpt lat="39.6897747" lon="8.4993885"><ele>38.0</ele><time>2026-04-05T10:10:55.939Z</time></trkpt><trkpt lat="39.6897589" lon="8.499288"><ele>38.285714285714285</ele><time>2026-04-05T10:11:02.939Z</time></trkpt><trkpt lat="39.6897283" lon="8.4992084"><ele>38.57142857142858</ele><time>2026-04-05T10:11:06.938Z</time></trkpt><trkpt lat="39.6896942" lon="8.499137"><ele>38.85714285714286</ele><time>2026-04-05T10:11:12.939Z</time></trkpt><trkpt lat="39.6896642" lon="8.4990548"><ele>39.14285714285714</ele><time>2026-04-05T10:11:18.939Z</time></trkpt><trkpt lat="39.6896274" lon="8.498975"><ele>39.42857142857143</ele><time>2026-04-05T10:11:24.939Z</time></trkpt><trkpt lat="39.689589" lon="8.4988963"><ele>39.714285714285715</ele><time>2026-04-05T10:11:29.939Z</time></trkpt><trkpt lat="39.6895731" lon="8.4988151"><ele>40.0</ele><time>2026-04-05T10:11:33.939Z</time></trkpt><trkpt lat="39.6895526" lon="8.4987363"><ele>40.57142857142857</ele><time>2026-04-05T10:11:37.939Z</time></trkpt><trkpt lat="39.6894939" lon="8.4986792"><ele>41.142857142857146</ele><time>2026-04-05T10:11:42.89Z</time></trkpt><trkpt lat="39.6894409" lon="8.4986347"><ele>41.714285714285715</ele><time>2026-04-05T10:11:46.938Z</time></trkpt><trkpt lat="39.6893713" lon="8.498599"><ele>42.285714285714285</ele><time>2026-04-05T10:11:52.939Z</time></trkpt><trkpt lat="39.6893055" lon="8.4985488"><ele>42.857142857142854</ele><time>2026-04-05T10:11:58.939Z</time></trkpt><trkpt lat="39.6892527" lon="8.4984921"><ele>43.42857142857143</ele><time>2026-04-05T10:12:02.938Z</time></trkpt><trkpt lat="39.689203" lon="8.4984167"><ele>44.0</ele><time>2026-04-05T10:12:05.937Z</time></trkpt><trkpt lat="39.6891551" lon="8.4983449"><ele>44.0</ele><time>2026-04-05T10:12:08.939Z</time></trkpt><trkpt lat="39.6891108" lon="8.498278"><ele>44.0</ele><time>2026-04-05T10:12:11.939Z</time></trkpt><trkpt lat="39.6890549" lon="8.49822"><ele>44.0</ele><time>2026-04-05T10:12:14.92Z</time></trkpt><trkpt lat="39.6889934" lon="8.4981763"><ele>44.0</ele><time>2026-04-05T10:12:17.853Z</time></trkpt><trkpt lat="39.6889324" lon="8.498155"><ele>44.0</ele><time>2026-04-05T10:12:20.838Z</time></trkpt><trkpt lat="39.6888721" lon="8.4980862"><ele>44.0</ele><time>2026-04-05T10:12:23.939Z</time></trkpt><trkpt lat="39.6888072" lon="8.4980098"><ele>44.0</ele><time>2026-04-05T10:12:26.937Z</time></trkpt><trkpt lat="39.6887342" lon="8.4979533"><ele>45.33333333333333</ele><time>2026-04-05T10:12:29.939Z</time></trkpt><trkpt lat="39.6886733" lon="8.4979032"><ele>46.666666666666664</ele><time>2026-04-05T10:12:32.939Z</time></trkpt><trkpt lat="39.6886051" lon="8.4978408"><ele>48.0</ele><time>2026-04-05T10:12:36.931Z</time></trkpt><trkpt lat="39.6885369" lon="8.4978045"><ele>49.33333333333333</ele><time>2026-04-05T10:12:39.858Z</time></trkpt><trkpt lat="39.6884591" lon="8.497792"><ele>50.666666666666664</ele><time>2026-04-05T10:12:43.938Z</time></trkpt><trkpt lat="39.6883881" lon="8.4977757"><ele>52.0</ele><time>2026-04-05T10:12:46.939Z</time></trkpt><trkpt lat="39.6883146" lon="8.4977262"><ele>51.99999999999999</ele><time>2026-04-05T10:12:49.939Z</time></trkpt><trkpt lat="39.6882432" lon="8.4977106"><ele>52.0</ele><time>2026-04-05T10:12:52.939Z</time></trkpt><trkpt lat="39.6881614" lon="8.4976922"><ele>52.0</ele><time>2026-04-05T10:12:55.939Z</time></trkpt><trkpt lat="39.6880901" lon="8.4976391"><ele>52.0</ele><time>2026-04-05T10:12:58.937Z</time></trkpt><trkpt lat="39.6880262" lon="8.4976099"><ele>51.99999999999999</ele><time>2026-04-05T10:13:01.87Z</time></trkpt><trkpt lat="39.6879507" lon="8.4975811"><ele>52.0</ele><time>2026-04-05T10:13:05.939Z</time></trkpt><trkpt lat="39.6878778" lon="8.4975607"><ele>52.0</ele><time>2026-04-05T10:13:10.938Z</time></trkpt><trkpt lat="39.6878153" lon="8.4975962"><ele>52.0</ele><time>2026-04-05T10:13:14.939Z</time></trkpt><trkpt lat="39.6877454" lon="8.4975797"><ele>52.0</ele><time>2026-04-05T10:13:18.859Z</time></trkpt><trkpt lat="39.6876762" lon="8.497536"><ele>52.0</ele><time>2026-04-05T10:13:22.918Z</time></trkpt><trkpt lat="39.6876114" lon="8.4975576"><ele>52.0</ele><time>2026-04-05T10:13:25.938Z</time></trkpt><trkpt lat="39.6875456" lon="8.497562"><ele>52.0</ele><time>2026-04-05T10:13:28.939Z</time></trkpt><trkpt lat="39.6874797" lon="8.4975547"><ele>52.0</ele><time>2026-04-05T10:13:32.938Z</time></trkpt><trkpt lat="39.6874137" lon="8.4975523"><ele>51.857142857142854</ele><time>2026-04-05T10:13:36.938Z</time></trkpt><trkpt lat="39.6873472" lon="8.4975407"><ele>51.714285714285715</ele><time>2026-04-05T10:13:41.938Z</time></trkpt><trkpt lat="39.6872859" lon="8.4975149"><ele>51.57142857142857</ele><time>2026-04-05T10:13:46.939Z</time></trkpt><trkpt lat="39.6872181" lon="8.4974873"><ele>51.42857142857143</ele><time>2026-04-05T10:13:51.938Z</time></trkpt><trkpt lat="39.6871493" lon="8.4974454"><ele>51.28571428571429</ele><time>2026-04-05T10:13:56.938Z</time></trkpt><trkpt lat="39.6870738" lon="8.4974033"><ele>51.142857142857146</ele><time>2026-04-05T10:14:00.938Z</time></trkpt><trkpt lat="39.6870108" lon="8.4973979"><ele>51.0</ele><time>2026-04-05T10:14:04.937Z</time></trkpt><trkpt lat="39.6869628" lon="8.4973389"><ele>51.0</ele><time>2026-04-05T10:14:08.938Z</time></trkpt><trkpt lat="39.6868994" lon="8.4972843"><ele>51.0</ele><time>2026-04-05T10:14:14.938Z</time></trkpt><trkpt lat="39.6868394" lon="8.4972319"><ele>51.0</ele><time>2026-04-05T10:14:19.535Z</time></trkpt><trkpt lat="39.686782" lon="8.4971796"><ele>51.0</ele><time>2026-04-05T10:14:22.939Z</time></trkpt><trkpt lat="39.6867136" lon="8.4971254"><ele>51.0</ele><time>2026-04-05T10:14:26.938Z</time></trkpt><trkpt lat="39.6870738" lon="8.4974033"><ele>51.0</ele><time>2026-04-05T10:14:00.938Z</time></trkpt><trkpt lat="39.6870108" lon="8.4973979"><ele>51.0</ele><time>2026-04-05T10:14:04.937Z</time></trkpt><trkpt lat="39.6869628" lon="8.4973389"><ele>51.0</ele><time>2026-04-05T10:14:08.938Z</time></trkpt><trkpt lat="39.6868994" lon="8.4972843"><ele>51.0</ele><time>2026-04-05T10:14:14.938Z</time></trkpt><trkpt lat="39.6868394" lon="8.4972319"><ele>51.0</ele><time>2026-04-05T10:14:19.535Z</time></trkpt><trkpt lat="39.686782" lon="8.4971796"><ele>51.0</ele><time>2026-04-05T10:14:22.939Z</time></trkpt><trkpt lat="39.6867136" lon="8.4971254"><ele>51.0</ele><time>2026-04-05T10:14:26.938Z</time></trkpt><trkpt lat="39.6866387" lon="8.497075"><ele>52.57142857142857</ele><time>2026-04-05T10:14:30.938Z</time></trkpt><trkpt lat="39.6865845" lon="8.4970317"><ele>54.142857142857146</ele><time>2026-04-05T10:14:33.939Z</time></trkpt><trkpt lat="39.6865245" lon="8.4969827"><ele>55.714285714285715</ele><time>2026-04-05T10:14:37.939Z</time></trkpt><trkpt lat="39.6864619" lon="8.4969355"><ele>57.28571428571429</ele><time>2026-04-05T10:14:41.939Z</time></trkpt><trkpt lat="39.6864103" lon="8.4968765"><ele>58.85714285714286</ele><time>2026-04-05T10:14:46.938Z</time></trkpt><trkpt lat="39.686367" lon="8.4968066"><ele>60.42857142857143</ele><time>2026-04-05T10:14:52.938Z</time></trkpt><trkpt lat="39.6863341" lon="8.4967205"><ele>62.0</ele><time>2026-04-05T10:14:58.937Z</time></trkpt><trkpt lat="39.6863064" lon="8.496647"><ele>62.0</ele><time>2026-04-05T10:15:03.938Z</time></trkpt><trkpt lat="39.686275" lon="8.496559"><ele>62.00000000000001</ele><time>2026-04-05T10:15:11.938Z</time></trkpt><trkpt lat="39.6862496" lon="8.4964765"><ele>62.0</ele><time>2026-04-05T10:15:19.939Z</time></trkpt><trkpt lat="39.6862208" lon="8.4963888"><ele>62.0</ele><time>2026-04-05T10:15:25.918Z</time></trkpt><trkpt lat="39.6861718" lon="8.4963258"><ele>62.00000000000001</ele><time>2026-04-05T10:15:29.938Z</time></trkpt><trkpt lat="39.6861324" lon="8.4962547"><ele>62.0</ele><time>2026-04-05T10:15:34.898Z</time></trkpt><trkpt lat="39.6860838" lon="8.496178"><ele>62.0</ele><time>2026-04-05T10:15:40.939Z</time></trkpt><trkpt lat="39.6860481" lon="8.4961052"><ele>62.50000000000001</ele><time>2026-04-05T10:15:44.937Z</time></trkpt><trkpt lat="39.6860005" lon="8.496022"><ele>63.0</ele><time>2026-04-05T10:15:49.938Z</time></trkpt><trkpt lat="39.6859522" lon="8.4959693"><ele>63.5</ele><time>2026-04-05T10:15:53.938Z</time></trkpt><trkpt lat="39.6859426" lon="8.4958803"><ele>64.0</ele><time>2026-04-05T10:15:59.938Z</time></trkpt><trkpt lat="39.6859182" lon="8.4957811"><ele>64.5</ele><time>2026-04-05T10:16:05.938Z</time></trkpt><trkpt lat="39.6858738" lon="8.4956963"><ele>65.0</ele><time>2026-04-05T10:16:09.938Z</time></trkpt><trkpt lat="39.6858128" lon="8.495614"><ele>65.00000000000001</ele><time>2026-04-05T10:16:13.938Z</time></trkpt><trkpt lat="39.6857613" lon="8.4955427"><ele>65.0</ele><time>2026-04-05T10:16:16.938Z</time></trkpt><trkpt lat="39.6857177" lon="8.4954707"><ele>65.0</ele><time>2026-04-05T10:16:19.907Z</time></trkpt><trkpt lat="39.6856859" lon="8.4953927"><ele>65.0</ele><time>2026-04-05T10:16:22.937Z</time></trkpt><trkpt lat="39.6856471" lon="8.4953226"><ele>65.0</ele><time>2026-04-05T10:16:25.928Z</time></trkpt><trkpt lat="39.6856233" lon="8.495246"><ele>65.00000000000001</ele><time>2026-04-05T10:16:28.938Z</time></trkpt><trkpt lat="39.6855825" lon="8.4951756"><ele>65.0</ele><time>2026-04-05T10:16:31.938Z</time></trkpt><trkpt lat="39.6855253" lon="8.4951111"><ele>66.5</ele><time>2026-04-05T10:16:34.938Z</time></trkpt><trkpt lat="39.6854484" lon="8.4950938"><ele>68.0</ele><time>2026-04-05T10:16:38.888Z</time></trkpt><trkpt lat="39.6854032" lon="8.4950095"><ele>69.5</ele><time>2026-04-05T10:16:42.917Z</time></trkpt><trkpt lat="39.6853469" lon="8.494962"><ele>71.0</ele><time>2026-04-05T10:16:49.938Z</time></trkpt><trkpt lat="39.6849239" lon="8.4931626"><ele>71.0</ele><time>2026-04-05T10:20:46.494Z</time></trkpt><trkpt lat="39.6849872" lon="8.4931025"><ele>71.0</ele><time>2026-04-05T10:20:48.261Z</time></trkpt><trkpt lat="39.6850033" lon="8.4930091"><ele>71.0</ele><time>2026-04-05T10:20:50.937Z</time></trkpt><trkpt lat="39.6850437" lon="8.4929383"><ele>71.0</ele><time>2026-04-05T10:20:52.936Z</time></trkpt><trkpt lat="39.6850616" lon="8.4928432"><ele>71.0</ele><time>2026-04-05T10:20:57.937Z</time></trkpt><trkpt lat="39.6850921" lon="8.4927372"><ele>71.0</ele><time>2026-04-05T10:21:00.935Z</time></trkpt><trkpt lat="39.6851074" lon="8.4926303"><ele>73.0</ele><time>2026-04-05T10:21:03.937Z</time></trkpt><trkpt lat="39.6851299" lon="8.4925534"><ele>75.0</ele><time>2026-04-05T10:21:06.993Z</time></trkpt><trkpt lat="39.6849719" lon="8.4921137"><ele>77.0</ele><time>2026-04-05T10:21:20.55Z</time></trkpt><trkpt lat="39.6849318" lon="8.4920184"><ele>78.83333333333334</ele><time>2026-04-05T10:21:22.937Z</time></trkpt><trkpt lat="39.684875" lon="8.4919148"><ele>80.66666666666667</ele><time>2026-04-05T10:21:28.936Z</time></trkpt><trkpt lat="39.684838" lon="8.4918262"><ele>82.5</ele><time>2026-04-05T10:21:31.937Z</time></trkpt><trkpt lat="39.6847984" lon="8.4917396"><ele>84.33333333333333</ele><time>2026-04-05T10:21:34.937Z</time></trkpt><trkpt lat="39.6847663" lon="8.4916597"><ele>86.16666666666666</ele><time>2026-04-05T10:21:37.937Z</time></trkpt><trkpt lat="39.6847162" lon="8.4915826"><ele>88.0</ele><time>2026-04-05T10:21:40.937Z</time></trkpt><trkpt lat="39.6846599" lon="8.4915004"><ele>88.0</ele><time>2026-04-05T10:21:43.936Z</time></trkpt><trkpt lat="39.6846043" lon="8.491423"><ele>88.0</ele><time>2026-04-05T10:21:46.937Z</time></trkpt><trkpt lat="39.6845515" lon="8.4913551"><ele>88.0</ele><time>2026-04-05T10:21:49.937Z</time></trkpt><trkpt lat="39.6844989" lon="8.4912886"><ele>88.0</ele><time>2026-04-05T10:21:52.937Z</time></trkpt><trkpt lat="39.6844465" lon="8.4912218"><ele>88.0</ele><time>2026-04-05T10:21:55.936Z</time></trkpt><trkpt lat="39.6843897" lon="8.4911588"><ele>88.0</ele><time>2026-04-05T10:21:58.937Z</time></trkpt><trkpt lat="39.6843328" lon="8.4910986"><ele>89.28571428571429</ele><time>2026-04-05T10:22:01.937Z</time></trkpt><trkpt lat="39.6842615" lon="8.4910701"><ele>90.57142857142857</ele><time>2026-04-05T10:22:04.937Z</time></trkpt><trkpt lat="39.6841967" lon="8.4910542"><ele>91.85714285714286</ele><time>2026-04-05T10:22:07.935Z</time></trkpt><trkpt lat="39.684123" lon="8.4910401"><ele>93.14285714285714</ele><time>2026-04-05T10:22:12.937Z</time></trkpt><trkpt lat="39.6840479" lon="8.4910184"><ele>94.42857142857143</ele><time>2026-04-05T10:22:18.938Z</time></trkpt><trkpt lat="39.6839834" lon="8.49099"><ele>95.71428571428571</ele><time>2026-04-05T10:22:23.935Z</time></trkpt><trkpt lat="39.6839139" lon="8.4909406"><ele>97.0</ele><time>2026-04-05T10:22:27.935Z</time></trkpt><trkpt lat="39.6838546" lon="8.4909093"><ele>97.00000000000001</ele><time>2026-04-05T10:22:30.936Z</time></trkpt><trkpt lat="39.6837803" lon="8.4908832"><ele>97.0</ele><time>2026-04-05T10:22:33.937Z</time></trkpt><trkpt lat="39.6837004" lon="8.4908597"><ele>97.0</ele><time>2026-04-05T10:22:36.936Z</time></trkpt><trkpt lat="39.6836286" lon="8.4908275"><ele>97.0</ele><time>2026-04-05T10:22:39.935Z</time></trkpt><trkpt lat="39.6835564" lon="8.490775"><ele>97.00000000000001</ele><time>2026-04-05T10:22:42.937Z</time></trkpt><trkpt lat="39.6835096" lon="8.4907028"><ele>97.0</ele><time>2026-04-05T10:22:46.936Z</time></trkpt><trkpt lat="39.6834695" lon="8.4906252"><ele>96.14285714285714</ele><time>2026-04-05T10:22:49.937Z</time></trkpt><trkpt lat="39.6834496" lon="8.4905455"><ele>95.28571428571429</ele><time>2026-04-05T10:22:52.936Z</time></trkpt><trkpt lat="39.6834239" lon="8.4904572"><ele>94.42857142857143</ele><time>2026-04-05T10:22:55.936Z</time></trkpt><trkpt lat="39.6833937" lon="8.4903618"><ele>93.57142857142857</ele><time>2026-04-05T10:22:58.936Z</time></trkpt><trkpt lat="39.6833742" lon="8.4902638"><ele>92.71428571428572</ele><time>2026-04-05T10:23:01.936Z</time></trkpt><trkpt lat="39.6833592" lon="8.490172"><ele>91.85714285714286</ele><time>2026-04-05T10:23:04.937Z</time></trkpt><trkpt lat="39.68335" lon="8.4900781"><ele>91.0</ele><time>2026-04-05T10:23:07.937Z</time></trkpt><trkpt lat="39.6833355" lon="8.4899939"><ele>91.0</ele><time>2026-04-05T10:23:10.937Z</time></trkpt><trkpt lat="39.6833246" lon="8.4898999"><ele>91.0</ele><time>2026-04-05T10:23:13.936Z</time></trkpt><trkpt lat="39.6833147" lon="8.4897912"><ele>91.0</ele><time>2026-04-05T10:23:16.937Z</time></trkpt><trkpt lat="39.6833136" lon="8.4896917"><ele>91.0</ele><time>2026-04-05T10:23:19.937Z</time></trkpt><trkpt lat="39.6833201" lon="8.4895854"><ele>91.0</ele><time>2026-04-05T10:23:23.935Z</time></trkpt><trkpt lat="39.6833265" lon="8.4894908"><ele>91.0</ele><time>2026-04-05T10:23:27.937Z</time></trkpt><trkpt lat="39.68334" lon="8.4893952"><ele>91.42857142857143</ele><time>2026-04-05T10:23:33.935Z</time></trkpt><trkpt lat="39.6833538" lon="8.4893006"><ele>91.85714285714286</ele><time>2026-04-05T10:23:38.936Z</time></trkpt><trkpt lat="39.6833754" lon="8.4891993"><ele>92.28571428571428</ele><time>2026-04-05T10:23:42.936Z</time></trkpt><trkpt lat="39.6833925" lon="8.4891055"><ele>92.71428571428572</ele><time>2026-04-05T10:23:46.937Z</time></trkpt><trkpt lat="39.6834089" lon="8.4890243"><ele>93.14285714285714</ele><time>2026-04-05T10:23:50.937Z</time></trkpt><trkpt lat="39.6834357" lon="8.4889387"><ele>93.57142857142857</ele><time>2026-04-05T10:23:58.935Z</time></trkpt><trkpt lat="39.6834557" lon="8.4888469"><ele>94.0</ele><time>2026-04-05T10:24:08.937Z</time></trkpt><trkpt lat="39.6834813" lon="8.4887705"><ele>94.57142857142857</ele><time>2026-04-05T10:24:13.937Z</time></trkpt><trkpt lat="39.6835044" lon="8.4886874"><ele>95.14285714285714</ele><time>2026-04-05T10:24:18.936Z</time></trkpt><trkpt lat="39.6835206" lon="8.4886024"><ele>95.71428571428572</ele><time>2026-04-05T10:24:22.936Z</time></trkpt><trkpt lat="39.6835365" lon="8.4885115"><ele>96.28571428571428</ele><time>2026-04-05T10:24:26.936Z</time></trkpt><trkpt lat="39.6835561" lon="8.4884122"><ele>96.85714285714286</ele><time>2026-04-05T10:24:30.936Z</time></trkpt><trkpt lat="39.6835787" lon="8.4883274"><ele>97.42857142857143</ele><time>2026-04-05T10:24:34.936Z</time></trkpt><trkpt lat="39.68362" lon="8.4882415"><ele>98.0</ele><time>2026-04-05T10:24:39.937Z</time></trkpt><trkpt lat="39.6836457" lon="8.4881564"><ele>100.42857142857143</ele><time>2026-04-05T10:24:44.936Z</time></trkpt><trkpt lat="39.6836663" lon="8.4880769"><ele>102.85714285714286</ele><time>2026-04-05T10:24:49.936Z</time></trkpt><trkpt lat="39.6837038" lon="8.4880093"><ele>105.28571428571428</ele><time>2026-04-05T10:24:54.936Z</time></trkpt><trkpt lat="39.6837548" lon="8.4879534"><ele>107.71428571428571</ele><time>2026-04-05T10:26:27.936Z</time></trkpt><trkpt lat="39.6837923" lon="8.4878731"><ele>110.14285714285714</ele><time>2026-04-05T10:26:31.936Z</time></trkpt><trkpt lat="39.6837862" lon="8.4877733"><ele>112.57142857142856</ele><time>2026-04-05T10:26:35.936Z</time></trkpt><trkpt lat="39.6837376" lon="8.4876994"><ele>114.99999999999999</ele><time>2026-04-05T10:26:39.936Z</time></trkpt><trkpt lat="39.6836998" lon="8.4876261"><ele>115.28571428571428</ele><time>2026-04-05T10:26:45.936Z</time></trkpt><trkpt lat="39.6836651" lon="8.4875498"><ele>115.57142857142857</ele><time>2026-04-05T10:26:51.935Z</time></trkpt><trkpt lat="39.6836271" lon="8.4874811"><ele>115.85714285714286</ele><time>2026-04-05T10:26:56.936Z</time></trkpt><trkpt lat="39.6835905" lon="8.4874145"><ele>116.14285714285714</ele><time>2026-04-05T10:27:01.936Z</time></trkpt><trkpt lat="39.6835307" lon="8.4873728"><ele>116.42857142857144</ele><time>2026-04-05T10:27:33.936Z</time></trkpt><trkpt lat="39.683477" lon="8.4873265"><ele>116.71428571428572</ele><time>2026-04-05T10:27:37.935Z</time></trkpt><trkpt lat="39.6834064" lon="8.4872918"><ele>117.0</ele><time>2026-04-05T10:27:41.936Z</time></trkpt><trkpt lat="39.6833413" lon="8.4872749"><ele>117.28571428571429</ele><time>2026-04-05T10:27:45.936Z</time></trkpt><trkpt lat="39.6832768" lon="8.4872232"><ele>117.57142857142858</ele><time>2026-04-05T10:27:50.935Z</time></trkpt><trkpt lat="39.683248" lon="8.4871491"><ele>117.85714285714286</ele><time>2026-04-05T10:27:54.936Z</time></trkpt><trkpt lat="39.6832188" lon="8.4870658"><ele>118.14285714285714</ele><time>2026-04-05T10:27:58.935Z</time></trkpt><trkpt lat="39.6831875" lon="8.4869788"><ele>118.42857142857143</ele><time>2026-04-05T10:28:02.934Z</time></trkpt><trkpt lat="39.6831666" lon="8.4869007"><ele>118.71428571428572</ele><time>2026-04-05T10:28:05.935Z</time></trkpt><trkpt lat="39.683151" lon="8.4867982"><ele>119.0</ele><time>2026-04-05T10:28:09.936Z</time></trkpt><trkpt lat="39.6831419" lon="8.4867115"><ele>119.0</ele><time>2026-04-05T10:28:13.935Z</time></trkpt><trkpt lat="39.6831345" lon="8.4866143"><ele>119.0</ele><time>2026-04-05T10:28:17.935Z</time></trkpt><trkpt lat="39.683133" lon="8.4865226"><ele>119.0</ele><time>2026-04-05T10:28:20.935Z</time></trkpt><trkpt lat="39.6831384" lon="8.4864286"><ele>119.0</ele><time>2026-04-05T10:28:23.935Z</time></trkpt><trkpt lat="39.6831361" lon="8.486336"><ele>119.0</ele><time>2026-04-05T10:28:26.935Z</time></trkpt><trkpt lat="39.6831198" lon="8.4862442"><ele>119.0</ele><time>2026-04-05T10:28:29.935Z</time></trkpt><trkpt lat="39.6831017" lon="8.4861591"><ele>119.0</ele><time>2026-04-05T10:28:32.935Z</time></trkpt><trkpt lat="39.6830814" lon="8.4860728"><ele>119.33333333333333</ele><time>2026-04-05T10:28:35.936Z</time></trkpt><trkpt lat="39.6830587" lon="8.4859875"><ele>119.66666666666666</ele><time>2026-04-05T10:28:50.935Z</time></trkpt><trkpt lat="39.6830335" lon="8.4858752"><ele>120.0</ele><time>2026-04-05T10:28:54.935Z</time></trkpt><trkpt lat="39.6830203" lon="8.4857919"><ele>120.33333333333334</ele><time>2026-04-05T10:28:56.935Z</time></trkpt><trkpt lat="39.6830097" lon="8.48568"><ele>120.66666666666667</ele><time>2026-04-05T10:28:59.935Z</time></trkpt><trkpt lat="39.6830085" lon="8.4855765"><ele>121.0</ele><time>2026-04-05T10:29:03.935Z</time></trkpt><trkpt lat="39.6829697" lon="8.4854764"><ele>120.85714285714285</ele><time>2026-04-05T10:29:07.936Z</time></trkpt><trkpt lat="39.6829237" lon="8.4854145"><ele>120.7142857142857</ele><time>2026-04-05T10:29:09.936Z</time></trkpt><trkpt lat="39.6828772" lon="8.4853476"><ele>120.57142857142857</ele><time>2026-04-05T10:29:11.933Z</time></trkpt><trkpt lat="39.6828346" lon="8.4852784"><ele>120.42857142857142</ele><time>2026-04-05T10:29:13.936Z</time></trkpt><trkpt lat="39.6827888" lon="8.4852185"><ele>120.28571428571428</ele><time>2026-04-05T10:29:15.935Z</time></trkpt><trkpt lat="39.6827166" lon="8.4851541"><ele>120.14285714285714</ele><time>2026-04-05T10:29:18.934Z</time></trkpt><trkpt lat="39.6826534" lon="8.485119"><ele>120.0</ele><time>2026-04-05T10:29:21.935Z</time></trkpt><trkpt lat="39.6825837" lon="8.4851184"><ele>120.0</ele><time>2026-04-05T10:29:27.936Z</time></trkpt><trkpt lat="39.6825288" lon="8.4851767"><ele>120.0</ele><time>2026-04-05T10:29:32.935Z</time></trkpt><trkpt lat="39.6824873" lon="8.485258"><ele>120.0</ele><time>2026-04-05T10:29:37.935Z</time></trkpt><trkpt lat="39.6824544" lon="8.4853295"><ele>120.0</ele><time>2026-04-05T10:29:41.935Z</time></trkpt><trkpt lat="39.6824141" lon="8.4854061"><ele>120.0</ele><time>2026-04-05T10:29:45.935Z</time></trkpt><trkpt lat="39.6823691" lon="8.4854708"><ele>120.0</ele><time>2026-04-05T10:29:49.935Z</time></trkpt><trkpt lat="39.6823223" lon="8.4855486"><ele>120.0</ele><time>2026-04-05T10:29:53.935Z</time></trkpt><trkpt lat="39.682279" lon="8.4856317"><ele>120.57142857142858</ele><time>2026-04-05T10:29:57.936Z</time></trkpt><trkpt lat="39.6822403" lon="8.4857239"><ele>121.14285714285714</ele><time>2026-04-05T10:30:01.934Z</time></trkpt><trkpt lat="39.6821972" lon="8.4857942"><ele>121.71428571428572</ele><time>2026-04-05T10:30:05.935Z</time></trkpt><trkpt lat="39.6821468" lon="8.4858442"><ele>122.28571428571429</ele><time>2026-04-05T10:30:09.935Z</time></trkpt><trkpt lat="39.682077" lon="8.4858741"><ele>122.85714285714286</ele><time>2026-04-05T10:30:19.935Z</time></trkpt><trkpt lat="39.6820081" lon="8.4859061"><ele>123.42857142857143</ele><time>2026-04-05T10:30:23.935Z</time></trkpt><trkpt lat="39.6819515" lon="8.4859607"><ele>124.0</ele><time>2026-04-05T10:30:26.935Z</time></trkpt><trkpt lat="39.6818928" lon="8.4860251"><ele>124.66666666666667</ele><time>2026-04-05T10:30:29.935Z</time></trkpt><trkpt lat="39.6818441" lon="8.4861129"><ele>125.33333333333334</ele><time>2026-04-05T10:30:33.935Z</time></trkpt><trkpt lat="39.6818044" lon="8.4861836"><ele>126.0</ele><time>2026-04-05T10:30:36.935Z</time></trkpt><trkpt lat="39.6817694" lon="8.4862811"><ele>126.66666666666666</ele><time>2026-04-05T10:30:40.935Z</time></trkpt><trkpt lat="39.6817362" lon="8.4863546"><ele>127.33333333333333</ele><time>2026-04-05T10:30:43.934Z</time></trkpt><trkpt lat="39.681682" lon="8.4864344"><ele>128.0</ele><time>2026-04-05T10:30:47.935Z</time></trkpt><trkpt lat="39.6816234" lon="8.4865063"><ele>128.33333333333331</ele><time>2026-04-05T10:30:51.935Z</time></trkpt><trkpt lat="39.6815766" lon="8.4865753"><ele>128.66666666666666</ele><time>2026-04-05T10:30:54.934Z</time></trkpt><trkpt lat="39.6815302" lon="8.4866487"><ele>129.0</ele><time>2026-04-05T10:30:57.935Z</time></trkpt><trkpt lat="39.6814831" lon="8.4867227"><ele>129.33333333333334</ele><time>2026-04-05T10:31:00.934Z</time></trkpt><trkpt lat="39.6814361" lon="8.4867992"><ele>129.66666666666669</ele><time>2026-04-05T10:31:03.935Z</time></trkpt><trkpt lat="39.6813714" lon="8.4868662"><ele>130.0</ele><time>2026-04-05T10:31:06.934Z</time></trkpt><trkpt lat="39.6812969" lon="8.4869083"><ele>130.0</ele><time>2026-04-05T10:31:09.934Z</time></trkpt><trkpt lat="39.6812231" lon="8.4869382"><ele>130.0</ele><time>2026-04-05T10:31:12.934Z</time></trkpt><trkpt lat="39.6811544" lon="8.4869796"><ele>130.0</ele><time>2026-04-05T10:31:15.934Z</time></trkpt><trkpt lat="39.6810908" lon="8.4870356"><ele>130.0</ele><time>2026-04-05T10:31:18.934Z</time></trkpt><trkpt lat="39.6810266" lon="8.4871044"><ele>130.0</ele><time>2026-04-05T10:31:21.935Z</time></trkpt><trkpt lat="39.6809617" lon="8.4871802"><ele>130.0</ele><time>2026-04-05T10:31:24.934Z</time></trkpt><trkpt lat="39.6808943" lon="8.4872506"><ele>129.8</ele><time>2026-04-05T10:31:27.934Z</time></trkpt><trkpt lat="39.6808287" lon="8.4873133"><ele>129.6</ele><time>2026-04-05T10:31:30.934Z</time></trkpt><trkpt lat="39.6807772" lon="8.4873788"><ele>129.4</ele><time>2026-04-05T10:31:33.934Z</time></trkpt><trkpt lat="39.6807323" lon="8.4874381"><ele>129.2</ele><time>2026-04-05T10:31:37.935Z</time></trkpt><trkpt lat="39.680604" lon="8.4875609"><ele>129.0</ele><time>2026-04-05T10:31:52.935Z</time></trkpt><trkpt lat="39.6805467" lon="8.4876465"><ele>129.0</ele><time>2026-04-05T10:31:55.935Z</time></trkpt><trkpt lat="39.6804948" lon="8.4877324"><ele>129.0</ele><time>2026-04-05T10:31:58.935Z</time></trkpt><trkpt lat="39.6801278" lon="8.4883184"><ele>129.5</ele><time>2026-04-05T10:32:24.347Z</time></trkpt><trkpt lat="39.6800727" lon="8.4883799"><ele>130.0</ele><time>2026-04-05T10:32:27.935Z</time></trkpt><trkpt lat="39.680026" lon="8.4884503"><ele>130.5</ele><time>2026-04-05T10:32:31.935Z</time></trkpt><trkpt lat="39.6799814" lon="8.4885413"><ele>131.0</ele><time>2026-04-05T10:32:35.935Z</time></trkpt><trkpt lat="39.6799227" lon="8.4886238"><ele>131.5</ele><time>2026-04-05T10:32:38.935Z</time></trkpt><trkpt lat="39.6798471" lon="8.4886939"><ele>132.0</ele><time>2026-04-05T10:32:41.935Z</time></trkpt><trkpt lat="39.6797943" lon="8.488747"><ele>131.57142857142856</ele><time>2026-04-05T10:32:43.935Z</time></trkpt><trkpt lat="39.6797418" lon="8.4887996"><ele>131.14285714285714</ele><time>2026-04-05T10:32:45.935Z</time></trkpt><trkpt lat="39.6796876" lon="8.4888521"><ele>130.71428571428572</ele><time>2026-04-05T10:32:47.935Z</time></trkpt><trkpt lat="39.6796345" lon="8.4889051"><ele>130.28571428571428</ele><time>2026-04-05T10:32:49.935Z</time></trkpt><trkpt lat="39.6795834" lon="8.4889541"><ele>129.85714285714286</ele><time>2026-04-05T10:32:51.935Z</time></trkpt><trkpt lat="39.6795156" lon="8.4890353"><ele>129.42857142857142</ele><time>2026-04-05T10:32:54.935Z</time></trkpt><trkpt lat="39.6794719" lon="8.4891332"><ele>129.0</ele><time>2026-04-05T10:32:57.935Z</time></trkpt><trkpt lat="39.6794173" lon="8.4892158"><ele>130.0</ele><time>2026-04-05T10:33:00.935Z</time></trkpt><trkpt lat="39.6793469" lon="8.4892765"><ele>131.0</ele><time>2026-04-05T10:33:03.934Z</time></trkpt><trkpt lat="39.6792757" lon="8.4893114"><ele>132.0</ele><time>2026-04-05T10:33:06.934Z</time></trkpt><trkpt lat="39.6791991" lon="8.4893311"><ele>133.0</ele><time>2026-04-05T10:33:10.935Z</time></trkpt><trkpt lat="39.6791307" lon="8.4893348"><ele>134.0</ele><time>2026-04-05T10:33:13.934Z</time></trkpt><trkpt lat="39.6790495" lon="8.489339"><ele>135.0</ele><time>2026-04-05T10:33:17.935Z</time></trkpt><trkpt lat="39.6789755" lon="8.4893813"><ele>135.0</ele><time>2026-04-05T10:33:21.935Z</time></trkpt><trkpt lat="39.6789156" lon="8.489455"><ele>135.0</ele><time>2026-04-05T10:33:25.935Z</time></trkpt><trkpt lat="39.6788587" lon="8.4894988"><ele>135.0</ele><time>2026-04-05T10:33:57.934Z</time></trkpt><trkpt lat="39.6787895" lon="8.489522"><ele>135.0</ele><time>2026-04-05T10:34:02.934Z</time></trkpt><trkpt lat="39.6787323" lon="8.4895617"><ele>135.0</ele><time>2026-04-05T10:34:06.934Z</time></trkpt><trkpt lat="39.6786854" lon="8.4896294"><ele>135.0</ele><time>2026-04-05T10:34:10.933Z</time></trkpt><trkpt lat="39.6786382" lon="8.4896986"><ele>135.0</ele><time>2026-04-05T10:34:16.934Z</time></trkpt><trkpt lat="39.6785972" lon="8.489768"><ele>136.33333333333334</ele><time>2026-04-05T10:34:28.934Z</time></trkpt><trkpt lat="39.6785386" lon="8.4898384"><ele>137.66666666666666</ele><time>2026-04-05T10:34:32.934Z</time></trkpt><trkpt lat="39.6784881" lon="8.4899064"><ele>139.0</ele><time>2026-04-05T10:34:35.934Z</time></trkpt><trkpt lat="39.6784309" lon="8.4899834"><ele>140.33333333333331</ele><time>2026-04-05T10:34:38.935Z</time></trkpt><trkpt lat="39.6783666" lon="8.490065"><ele>141.66666666666666</ele><time>2026-04-05T10:34:41.934Z</time></trkpt><trkpt lat="39.6783049" lon="8.4901347"><ele>143.0</ele><time>2026-04-05T10:34:44.934Z</time></trkpt><trkpt lat="39.6782511" lon="8.4901856"><ele>143.0</ele><time>2026-04-05T10:34:47.934Z</time></trkpt><trkpt lat="39.6781825" lon="8.4902409"><ele>143.0</ele><time>2026-04-05T10:34:50.934Z</time></trkpt><trkpt lat="39.6781065" lon="8.490314"><ele>143.0</ele><time>2026-04-05T10:34:53.934Z</time></trkpt><trkpt lat="39.6780546" lon="8.4903773"><ele>143.0</ele><time>2026-04-05T10:34:55.934Z</time></trkpt><trkpt lat="39.6779972" lon="8.4904331"><ele>143.0</ele><time>2026-04-05T10:34:57.933Z</time></trkpt><trkpt lat="39.6779431" lon="8.4904937"><ele>143.0</ele><time>2026-04-05T10:34:59.934Z</time></trkpt><trkpt lat="39.6778957" lon="8.4905627"><ele>142.7142857142857</ele><time>2026-04-05T10:35:01.934Z</time></trkpt><trkpt lat="39.6778602" lon="8.4906411"><ele>142.42857142857142</ele><time>2026-04-05T10:35:03.934Z</time></trkpt><trkpt lat="39.6778399" lon="8.490726"><ele>142.14285714285714</ele><time>2026-04-05T10:35:05.934Z</time></trkpt><trkpt lat="39.6778371" lon="8.4908424"><ele>141.85714285714283</ele><time>2026-04-05T10:35:08.934Z</time></trkpt><trkpt lat="39.6778524" lon="8.4909411"><ele>141.57142857142856</ele><time>2026-04-05T10:35:11.934Z</time></trkpt><trkpt lat="39.6778483" lon="8.4910257"><ele>141.28571428571428</ele><time>2026-04-05T10:35:14.933Z</time></trkpt><trkpt lat="39.6778186" lon="8.4911043"><ele>141.0</ele><time>2026-04-05T10:35:17.934Z</time></trkpt><trkpt lat="39.6777728" lon="8.4911627"><ele>142.42857142857144</ele><time>2026-04-05T10:35:20.934Z</time></trkpt><trkpt lat="39.6776993" lon="8.4911926"><ele>143.85714285714286</ele><time>2026-04-05T10:35:24.934Z</time></trkpt><trkpt lat="39.6776345" lon="8.491201"><ele>145.28571428571428</ele><time>2026-04-05T10:35:28.934Z</time></trkpt><trkpt lat="39.677567" lon="8.4912124"><ele>146.71428571428572</ele><time>2026-04-05T10:36:53.934Z</time></trkpt><trkpt lat="39.6774933" lon="8.4912259"><ele>148.14285714285714</ele><time>2026-04-05T10:36:56.933Z</time></trkpt><trkpt lat="39.6774202" lon="8.4912353"><ele>149.57142857142858</ele><time>2026-04-05T10:36:59.934Z</time></trkpt><trkpt lat="39.6773477" lon="8.4912473"><ele>151.0</ele><time>2026-04-05T10:37:02.933Z</time></trkpt><trkpt lat="39.6772803" lon="8.4912631"><ele>151.00000000000003</ele><time>2026-04-05T10:37:05.932Z</time></trkpt><trkpt lat="39.6772152" lon="8.4912816"><ele>151.0</ele><time>2026-04-05T10:37:08.934Z</time></trkpt><trkpt lat="39.6771479" lon="8.491308"><ele>151.0</ele><time>2026-04-05T10:37:11.933Z</time></trkpt><trkpt lat="39.677071" lon="8.4913573"><ele>151.0</ele><time>2026-04-05T10:37:14.932Z</time></trkpt><trkpt lat="39.6770174" lon="8.4914047"><ele>151.0</ele><time>2026-04-05T10:37:16.934Z</time></trkpt><trkpt lat="39.6769676" lon="8.4914557"><ele>151.00000000000003</ele><time>2026-04-05T10:37:18.932Z</time></trkpt><trkpt lat="39.6769163" lon="8.4915111"><ele>151.0</ele><time>2026-04-05T10:37:20.934Z</time></trkpt><trkpt lat="39.6768708" lon="8.4915717"><ele>152.66666666666669</ele><time>2026-04-05T10:37:22.934Z</time></trkpt><trkpt lat="39.6768024" lon="8.4916505"><ele>154.33333333333334</ele><time>2026-04-05T10:37:25.933Z</time></trkpt><trkpt lat="39.6767382" lon="8.4917211"><ele>156.0</ele><time>2026-04-05T10:37:28.934Z</time></trkpt><trkpt lat="39.6766854" lon="8.4918014"><ele>157.66666666666666</ele><time>2026-04-05T10:37:32.933Z</time></trkpt><trkpt lat="39.676648" lon="8.491882"><ele>159.33333333333331</ele><time>2026-04-05T10:37:35.933Z</time></trkpt><trkpt lat="39.6765994" lon="8.4919836"><ele>161.0</ele><time>2026-04-05T10:37:38.933Z</time></trkpt><trkpt lat="39.6765586" lon="8.4920532"><ele>161.66666666666666</ele><time>2026-04-05T10:37:40.933Z</time></trkpt><trkpt lat="39.6765224" lon="8.4921469"><ele>162.33333333333331</ele><time>2026-04-05T10:37:43.934Z</time></trkpt><trkpt lat="39.676498" lon="8.4922315"><ele>163.0</ele><time>2026-04-05T10:37:46.934Z</time></trkpt><trkpt lat="39.6764613" lon="8.4923342"><ele>163.66666666666666</ele><time>2026-04-05T10:37:50.932Z</time></trkpt><trkpt lat="39.6764212" lon="8.492422"><ele>164.33333333333334</ele><time>2026-04-05T10:37:53.934Z</time></trkpt><trkpt lat="39.6763695" lon="8.4925203"><ele>165.0</ele><time>2026-04-05T10:37:56.932Z</time></trkpt><trkpt lat="39.6763205" lon="8.4926058"><ele>165.0</ele><time>2026-04-05T10:37:59.932Z</time></trkpt><trkpt lat="39.676246" lon="8.4926637"><ele>165.0</ele><time>2026-04-05T10:38:02.934Z</time></trkpt><trkpt lat="39.6761767" lon="8.4926776"><ele>165.0</ele><time>2026-04-05T10:38:05.933Z</time></trkpt><trkpt lat="39.6761077" lon="8.4926407"><ele>165.0</ele><time>2026-04-05T10:38:09.933Z</time></trkpt><trkpt lat="39.6760409" lon="8.492599"><ele>165.0</ele><time>2026-04-05T10:38:14.933Z</time></trkpt><trkpt lat="39.6759752" lon="8.4925562"><ele>165.0</ele><time>2026-04-05T10:38:18.934Z</time></trkpt><trkpt lat="39.6758989" lon="8.4925106"><ele>166.5</ele><time>2026-04-05T10:38:22.934Z</time></trkpt><trkpt lat="39.6758317" lon="8.4924792"><ele>168.0</ele><time>2026-04-05T10:38:25.933Z</time></trkpt><trkpt lat="39.6731946" lon="8.4927293"><ele>170.0</ele><time>2026-04-05T10:40:41.811Z</time></trkpt><trkpt lat="39.6731238" lon="8.4927671"><ele>172.0</ele><time>2026-04-05T10:41:00.932Z</time></trkpt><trkpt lat="39.6730678" lon="8.4928271"><ele>174.0</ele><time>2026-04-05T10:41:03.932Z</time></trkpt><trkpt lat="39.6729909" lon="8.4928978"><ele>176.0</ele><time>2026-04-05T10:41:06.932Z</time></trkpt><trkpt lat="39.6729231" lon="8.4929523"><ele>178.0</ele><time>2026-04-05T10:41:10.931Z</time></trkpt><trkpt lat="39.6728572" lon="8.4930012"><ele>180.0</ele><time>2026-04-05T10:41:14.932Z</time></trkpt><trkpt lat="39.672803" lon="8.4930816"><ele>180.7142857142857</ele><time>2026-04-05T10:41:18.932Z</time></trkpt><trkpt lat="39.6727573" lon="8.4931513"><ele>181.42857142857144</ele><time>2026-04-05T10:41:21.931Z</time></trkpt><trkpt lat="39.6727138" lon="8.4932189"><ele>182.14285714285714</ele><time>2026-04-05T10:41:24.931Z</time></trkpt><trkpt lat="39.6726573" lon="8.4932765"><ele>182.85714285714283</ele><time>2026-04-05T10:41:27.932Z</time></trkpt><trkpt lat="39.6725929" lon="8.4933324"><ele>183.57142857142856</ele><time>2026-04-05T10:41:30.932Z</time></trkpt><trkpt lat="39.6725431" lon="8.4933876"><ele>184.28571428571428</ele><time>2026-04-05T10:41:33.932Z</time></trkpt><trkpt lat="39.6724873" lon="8.4934678"><ele>185.0</ele><time>2026-04-05T10:41:36.932Z</time></trkpt><trkpt lat="39.6724507" lon="8.4935345"><ele>184.99999999999997</ele><time>2026-04-05T10:41:38.932Z</time></trkpt><trkpt lat="39.6724188" lon="8.4936098"><ele>185.0</ele><time>2026-04-05T10:41:40.931Z</time></trkpt><trkpt lat="39.6723927" lon="8.4936864"><ele>185.0</ele><time>2026-04-05T10:41:42.932Z</time></trkpt><trkpt lat="39.6723601" lon="8.4937672"><ele>185.0</ele><time>2026-04-05T10:41:44.932Z</time></trkpt><trkpt lat="39.672323" lon="8.4938516"><ele>185.0</ele><time>2026-04-05T10:41:46.932Z</time></trkpt><trkpt lat="39.6722875" lon="8.4939475"><ele>184.99999999999997</ele><time>2026-04-05T10:41:48.933Z</time></trkpt><trkpt lat="39.6722556" lon="8.4940527"><ele>185.0</ele><time>2026-04-05T10:41:50.933Z</time></trkpt><trkpt lat="39.6722218" lon="8.4941588"><ele>185.33333333333331</ele><time>2026-04-05T10:41:52.933Z</time></trkpt><trkpt lat="39.6721897" lon="8.4942556"><ele>185.66666666666666</ele><time>2026-04-05T10:41:54.931Z</time></trkpt><trkpt lat="39.6721637" lon="8.4943407"><ele>186.0</ele><time>2026-04-05T10:41:56.932Z</time></trkpt><trkpt lat="39.6721285" lon="8.4944566"><ele>186.33333333333334</ele><time>2026-04-05T10:41:59.932Z</time></trkpt><trkpt lat="39.6721104" lon="8.4945421"><ele>186.66666666666669</ele><time>2026-04-05T10:42:01.932Z</time></trkpt><trkpt lat="39.6720784" lon="8.4946247"><ele>187.0</ele><time>2026-04-05T10:42:03.933Z</time></trkpt><trkpt lat="39.6720405" lon="8.4946965"><ele>186.66666666666669</ele><time>2026-04-05T10:42:05.93Z</time></trkpt><trkpt lat="39.6719917" lon="8.4947526"><ele>186.33333333333334</ele><time>2026-04-05T10:42:07.933Z</time></trkpt><trkpt lat="39.6719269" lon="8.4947956"><ele>186.0</ele><time>2026-04-05T10:42:09.932Z</time></trkpt><trkpt lat="39.671858" lon="8.4948468"><ele>185.66666666666666</ele><time>2026-04-05T10:42:11.933Z</time></trkpt><trkpt lat="39.6717926" lon="8.494913"><ele>185.33333333333331</ele><time>2026-04-05T10:42:13.933Z</time></trkpt><trkpt lat="39.6717341" lon="8.4949857"><ele>185.0</ele><time>2026-04-05T10:42:15.932Z</time></trkpt><trkpt lat="39.6716744" lon="8.4950512"><ele>185.0</ele><time>2026-04-05T10:42:17.932Z</time></trkpt><trkpt lat="39.6716099" lon="8.4951057"><ele>185.0</ele><time>2026-04-05T10:42:19.933Z</time></trkpt><trkpt lat="39.671538" lon="8.495148"><ele>185.0</ele><time>2026-04-05T10:42:21.932Z</time></trkpt><trkpt lat="39.6714658" lon="8.4951865"><ele>185.0</ele><time>2026-04-05T10:42:23.933Z</time></trkpt><trkpt lat="39.6713943" lon="8.4952229"><ele>185.0</ele><time>2026-04-05T10:42:25.932Z</time></trkpt><trkpt lat="39.6713228" lon="8.4952579"><ele>185.0</ele><time>2026-04-05T10:42:27.933Z</time></trkpt><trkpt lat="39.6712542" lon="8.4952893"><ele>184.99999999999997</ele><time>2026-04-05T10:42:29.932Z</time></trkpt><trkpt lat="39.671184" lon="8.4953221"><ele>185.0</ele><time>2026-04-05T10:42:31.931Z</time></trkpt><trkpt lat="39.671117" lon="8.495351"><ele>185.0</ele><time>2026-04-05T10:42:33.932Z</time></trkpt><trkpt lat="39.6710487" lon="8.4953694"><ele>185.0</ele><time>2026-04-05T10:42:35.932Z</time></trkpt><trkpt lat="39.670978" lon="8.4953812"><ele>185.0</ele><time>2026-04-05T10:42:37.932Z</time></trkpt><trkpt lat="39.6709117" lon="8.4953863"><ele>184.99999999999997</ele><time>2026-04-05T10:42:39.932Z</time></trkpt><trkpt lat="39.6708209" lon="8.4953977"><ele>185.0</ele><time>2026-04-05T10:42:42.932Z</time></trkpt><trkpt lat="39.6707311" lon="8.4954183"><ele>184.7142857142857</ele><time>2026-04-05T10:42:45.931Z</time></trkpt><trkpt lat="39.6706378" lon="8.4954334"><ele>184.42857142857142</ele><time>2026-04-05T10:42:48.931Z</time></trkpt><trkpt lat="39.6705744" lon="8.4954364"><ele>184.14285714285714</ele><time>2026-04-05T10:42:50.932Z</time></trkpt><trkpt lat="39.6705099" lon="8.4954267"><ele>183.85714285714283</ele><time>2026-04-05T10:42:52.932Z</time></trkpt><trkpt lat="39.670447" lon="8.4953978"><ele>183.57142857142858</ele><time>2026-04-05T10:42:54.932Z</time></trkpt><trkpt lat="39.6703885" lon="8.4953564"><ele>183.28571428571428</ele><time>2026-04-05T10:42:56.932Z</time></trkpt><trkpt lat="39.6703365" lon="8.4953094"><ele>183.0</ele><time>2026-04-05T10:42:58.931Z</time></trkpt><trkpt lat="39.6702624" lon="8.4952438"><ele>181.33333333333334</ele><time>2026-04-05T10:43:01.932Z</time></trkpt><trkpt lat="39.6702009" lon="8.4951982"><ele>179.66666666666666</ele><time>2026-04-05T10:43:04.932Z</time></trkpt><trkpt lat="39.6701359" lon="8.4951629"><ele>178.0</ele><time>2026-04-05T10:43:07.933Z</time></trkpt><trkpt lat="39.6700567" lon="8.495103"><ele>176.33333333333331</ele><time>2026-04-05T10:43:10.932Z</time></trkpt><trkpt lat="39.6700038" lon="8.4950472"><ele>174.66666666666666</ele><time>2026-04-05T10:43:12.932Z</time></trkpt><trkpt lat="39.6699546" lon="8.4949886"><ele>173.0</ele><time>2026-04-05T10:43:14.933Z</time></trkpt><trkpt lat="39.6698869" lon="8.4949132"><ele>173.0</ele><time>2026-04-05T10:43:17.932Z</time></trkpt><trkpt lat="39.6698291" lon="8.4948643"><ele>173.0</ele><time>2026-04-05T10:43:20.932Z</time></trkpt><trkpt lat="39.6697691" lon="8.4948186"><ele>173.0</ele><time>2026-04-05T10:43:23.93Z</time></trkpt><trkpt lat="39.6697141" lon="8.4947716"><ele>173.0</ele><time>2026-04-05T10:43:26.932Z</time></trkpt><trkpt lat="39.6696422" lon="8.4947162"><ele>173.0</ele><time>2026-04-05T10:43:30.931Z</time></trkpt><trkpt lat="39.6695791" lon="8.4946673"><ele>173.0</ele><time>2026-04-05T10:43:33.932Z</time></trkpt><trkpt lat="39.6695104" lon="8.4946125"><ele>173.0</ele><time>2026-04-05T10:43:36.932Z</time></trkpt><trkpt lat="39.6694431" lon="8.4945531"><ele>172.16666666666666</ele><time>2026-04-05T10:43:39.933Z</time></trkpt><trkpt lat="39.6693887" lon="8.4944889"><ele>171.33333333333331</ele><time>2026-04-05T10:43:42.932Z</time></trkpt><trkpt lat="39.6693385" lon="8.4944131"><ele>170.5</ele><time>2026-04-05T10:43:45.932Z</time></trkpt><trkpt lat="39.6692759" lon="8.4943443"><ele>169.66666666666666</ele><time>2026-04-05T10:43:48.931Z</time></trkpt><trkpt lat="39.6692046" lon="8.4942891"><ele>168.83333333333334</ele><time>2026-04-05T10:43:51.932Z</time></trkpt><trkpt lat="39.6691258" lon="8.4942405"><ele>168.0</ele><time>2026-04-05T10:43:54.932Z</time></trkpt><trkpt lat="39.6690516" lon="8.4941931"><ele>168.0</ele><time>2026-04-05T10:43:57.932Z</time></trkpt><trkpt lat="39.6689812" lon="8.494135"><ele>168.0</ele><time>2026-04-05T10:44:00.932Z</time></trkpt><trkpt lat="39.6689103" lon="8.4940667"><ele>168.0</ele><time>2026-04-05T10:44:03.932Z</time></trkpt><trkpt lat="39.6688578" lon="8.494016"><ele>168.0</ele><time>2026-04-05T10:44:05.932Z</time></trkpt><trkpt lat="39.6687948" lon="8.4939604"><ele>168.0</ele><time>2026-04-05T10:44:08.932Z</time></trkpt><trkpt lat="39.6687367" lon="8.4939106"><ele>168.0</ele><time>2026-04-05T10:44:11.931Z</time></trkpt><trkpt lat="39.6686745" lon="8.4938672"><ele>168.0</ele><time>2026-04-05T10:44:14.933Z</time></trkpt><trkpt lat="39.668613" lon="8.4938371"><ele>168.0</ele><time>2026-04-05T10:44:17.932Z</time></trkpt><trkpt lat="39.6685383" lon="8.4938075"><ele>168.0</ele><time>2026-04-05T10:44:20.931Z</time></trkpt><trkpt lat="39.6684654" lon="8.4937663"><ele>168.0</ele><time>2026-04-05T10:44:23.931Z</time></trkpt><trkpt lat="39.6684059" lon="8.4937"><ele>168.0</ele><time>2026-04-05T10:44:26.931Z</time></trkpt><trkpt lat="39.6683571" lon="8.4936148"><ele>168.0</ele><time>2026-04-05T10:44:29.932Z</time></trkpt><trkpt lat="39.6683179" lon="8.4935254"><ele>167.16666666666666</ele><time>2026-04-05T10:44:32.932Z</time></trkpt><trkpt lat="39.668299" lon="8.4934303"><ele>166.33333333333334</ele><time>2026-04-05T10:44:35.932Z</time></trkpt><trkpt lat="39.6682763" lon="8.4933169"><ele>165.5</ele><time>2026-04-05T10:44:38.932Z</time></trkpt><trkpt lat="39.668259" lon="8.4932066"><ele>164.66666666666669</ele><time>2026-04-05T10:44:41.932Z</time></trkpt><trkpt lat="39.6682411" lon="8.4931098"><ele>163.83333333333334</ele><time>2026-04-05T10:44:44.931Z</time></trkpt><trkpt lat="39.6681896" lon="8.4930468"><ele>163.0</ele><time>2026-04-05T10:44:47.932Z</time></trkpt><trkpt lat="39.6681214" lon="8.4930572"><ele>163.0</ele><time>2026-04-05T10:44:50.931Z</time></trkpt><trkpt lat="39.6680616" lon="8.4931345"><ele>163.0</ele><time>2026-04-05T10:44:53.931Z</time></trkpt><trkpt lat="39.6680315" lon="8.4932148"><ele>163.0</ele><time>2026-04-05T10:44:55.931Z</time></trkpt><trkpt lat="39.6680058" lon="8.4933169"><ele>163.0</ele><time>2026-04-05T10:44:58.932Z</time></trkpt><trkpt lat="39.667978" lon="8.4934251"><ele>163.0</ele><time>2026-04-05T10:45:02.932Z</time></trkpt><trkpt lat="39.6679442" lon="8.4935179"><ele>163.0</ele><time>2026-04-05T10:45:05.932Z</time></trkpt><trkpt lat="39.6678925" lon="8.4935981"><ele>163.0</ele><time>2026-04-05T10:45:08.931Z</time></trkpt><trkpt lat="39.6678447" lon="8.4936905"><ele>163.0</ele><time>2026-04-05T10:45:11.932Z</time></trkpt><trkpt lat="39.6678049" lon="8.4937965"><ele>163.0</ele><time>2026-04-05T10:45:14.931Z</time></trkpt><trkpt lat="39.6677928" lon="8.4938933"><ele>163.0</ele><time>2026-04-05T10:45:16.932Z</time></trkpt><trkpt lat="39.6677947" lon="8.4939907"><ele>163.0</ele><time>2026-04-05T10:45:18.932Z</time></trkpt><trkpt lat="39.6677963" lon="8.4940745"><ele>163.0</ele><time>2026-04-05T10:45:20.931Z</time></trkpt><trkpt lat="39.6677792" lon="8.4941774"><ele>160.83333333333334</ele><time>2026-04-05T10:45:23.932Z</time></trkpt><trkpt lat="39.6677222" lon="8.4942803"><ele>158.66666666666669</ele><time>2026-04-05T10:45:26.931Z</time></trkpt><trkpt lat="39.6676791" lon="8.4943593"><ele>156.5</ele><time>2026-04-05T10:45:28.932Z</time></trkpt><trkpt lat="39.6676458" lon="8.4944298"><ele>154.33333333333334</ele><time>2026-04-05T10:45:30.932Z</time></trkpt><trkpt lat="39.6676064" lon="8.49451"><ele>152.16666666666666</ele><time>2026-04-05T10:45:33.93Z</time></trkpt><trkpt lat="39.6675794" lon="8.4946074"><ele>150.0</ele><time>2026-04-05T10:45:37.932Z</time></trkpt><trkpt lat="39.6675646" lon="8.4946892"><ele>149.66666666666666</ele><time>2026-04-05T10:45:40.932Z</time></trkpt><trkpt lat="39.6675503" lon="8.4947759"><ele>149.33333333333334</ele><time>2026-04-05T10:45:43.932Z</time></trkpt><trkpt lat="39.6675331" lon="8.4948797"><ele>149.0</ele><time>2026-04-05T10:45:47.931Z</time></trkpt><trkpt lat="39.6675102" lon="8.4949757"><ele>148.66666666666669</ele><time>2026-04-05T10:45:51.931Z</time></trkpt><trkpt lat="39.6675126" lon="8.4950803"><ele>148.33333333333334</ele><time>2026-04-05T10:45:55.931Z</time></trkpt><trkpt lat="39.6675506" lon="8.4951545"><ele>148.0</ele><time>2026-04-05T10:45:58.931Z</time></trkpt><trkpt lat="39.6676168" lon="8.4952065"><ele>148.0</ele><time>2026-04-05T10:46:01.932Z</time></trkpt><trkpt lat="39.6676918" lon="8.4952608"><ele>148.0</ele><time>2026-04-05T10:46:04.932Z</time></trkpt><trkpt lat="39.6677616" lon="8.4953112"><ele>148.0</ele><time>2026-04-05T10:46:07.932Z</time></trkpt><trkpt lat="39.6678333" lon="8.4953728"><ele>148.0</ele><time>2026-04-05T10:46:12.932Z</time></trkpt><trkpt lat="39.6678982" lon="8.4954216"><ele>148.0</ele><time>2026-04-05T10:46:14.931Z</time></trkpt><trkpt lat="39.667959" lon="8.4954571"><ele>148.0</ele><time>2026-04-05T10:46:16.93Z</time></trkpt><trkpt lat="39.6680283" lon="8.4955191"><ele>148.0</ele><time>2026-04-05T10:46:19.932Z</time></trkpt><trkpt lat="39.6680338" lon="8.4956121"><ele>148.0</ele><time>2026-04-05T10:46:22.932Z</time></trkpt><trkpt lat="39.6679548" lon="8.4956429"><ele>148.0</ele><time>2026-04-05T10:46:32.93Z</time></trkpt><trkpt lat="39.6678813" lon="8.49559"><ele>148.0</ele><time>2026-04-05T10:46:34.932Z</time></trkpt><trkpt lat="39.6678113" lon="8.495522"><ele>148.0</ele><time>2026-04-05T10:46:36.931Z</time></trkpt><trkpt lat="39.6677403" lon="8.4954781"><ele>148.0</ele><time>2026-04-05T10:46:38.932Z</time></trkpt><trkpt lat="39.6676645" lon="8.4954453"><ele>148.0</ele><time>2026-04-05T10:46:40.932Z</time></trkpt><trkpt lat="39.6675916" lon="8.4954187"><ele>148.0</ele><time>2026-04-05T10:46:42.931Z</time></trkpt><trkpt lat="39.6675262" lon="8.4954055"><ele>148.0</ele><time>2026-04-05T10:46:44.932Z</time></trkpt><trkpt lat="39.6674383" lon="8.4954115"><ele>148.0</ele><time>2026-04-05T10:46:47.932Z</time></trkpt><trkpt lat="39.6673697" lon="8.495395"><ele>148.0</ele><time>2026-04-05T10:46:50.931Z</time></trkpt><trkpt lat="39.6673095" lon="8.495342"><ele>148.0</ele><time>2026-04-05T10:46:53.932Z</time></trkpt><trkpt lat="39.6672672" lon="8.4952575"><ele>148.0</ele><time>2026-04-05T10:46:56.931Z</time></trkpt><trkpt lat="39.6672364" lon="8.4951432"><ele>148.0</ele><time>2026-04-05T10:46:59.931Z</time></trkpt><trkpt lat="39.6672127" lon="8.4950546"><ele>148.0</ele><time>2026-04-05T10:47:01.932Z</time></trkpt><trkpt lat="39.6671896" lon="8.4949561"><ele>148.0</ele><time>2026-04-05T10:47:03.931Z</time></trkpt><trkpt lat="39.6671739" lon="8.4948529"><ele>148.0</ele><time>2026-04-05T10:47:05.931Z</time></trkpt><trkpt lat="39.6671557" lon="8.4947496"><ele>148.0</ele><time>2026-04-05T10:47:07.931Z</time></trkpt><trkpt lat="39.6671348" lon="8.4946435"><ele>148.33333333333334</ele><time>2026-04-05T10:47:09.931Z</time></trkpt><trkpt lat="39.6671143" lon="8.4945433"><ele>148.66666666666669</ele><time>2026-04-05T10:47:11.932Z</time></trkpt><trkpt lat="39.6670913" lon="8.4944422"><ele>149.0</ele><time>2026-04-05T10:47:13.931Z</time></trkpt><trkpt lat="39.6670751" lon="8.4943392"><ele>149.33333333333334</ele><time>2026-04-05T10:47:15.931Z</time></trkpt><trkpt lat="39.6670521" lon="8.4942381"><ele>149.66666666666666</ele><time>2026-04-05T10:47:17.931Z</time></trkpt><trkpt lat="39.6670227" lon="8.494137"><ele>150.0</ele><time>2026-04-05T10:47:19.931Z</time></trkpt><trkpt lat="39.6669915" lon="8.4940453"><ele>150.0</ele><time>2026-04-05T10:47:21.931Z</time></trkpt><trkpt lat="39.6669559" lon="8.4939516"><ele>150.0</ele><time>2026-04-05T10:47:23.931Z</time></trkpt><trkpt lat="39.6669223" lon="8.4938529"><ele>150.0</ele><time>2026-04-05T10:47:25.931Z</time></trkpt><trkpt lat="39.6668918" lon="8.4937537"><ele>150.0</ele><time>2026-04-05T10:47:27.93Z</time></trkpt><trkpt lat="39.6668659" lon="8.49366"><ele>150.0</ele><time>2026-04-05T10:47:29.931Z</time></trkpt><trkpt lat="39.66686" lon="8.4935627"><ele>150.0</ele><time>2026-04-05T10:47:31.931Z</time></trkpt><trkpt lat="39.666856" lon="8.4934591"><ele>148.16666666666666</ele><time>2026-04-05T10:47:33.931Z</time></trkpt><trkpt lat="39.6668445" lon="8.4933569"><ele>146.33333333333334</ele><time>2026-04-05T10:47:35.931Z</time></trkpt><trkpt lat="39.6668396" lon="8.4932568"><ele>144.5</ele><time>2026-04-05T10:47:37.931Z</time></trkpt><trkpt lat="39.6668375" lon="8.4931392"><ele>142.66666666666669</ele><time>2026-04-05T10:47:40.932Z</time></trkpt><trkpt lat="39.6668175" lon="8.4930249"><ele>140.83333333333334</ele><time>2026-04-05T10:47:43.931Z</time></trkpt><trkpt lat="39.6667854" lon="8.4929524"><ele>139.0</ele><time>2026-04-05T10:47:45.932Z</time></trkpt><trkpt lat="39.6667469" lon="8.4928872"><ele>138.16666666666669</ele><time>2026-04-05T10:47:47.931Z</time></trkpt><trkpt lat="39.6666902" lon="8.4928017"><ele>137.33333333333334</ele><time>2026-04-05T10:47:50.931Z</time></trkpt><trkpt lat="39.6666381" lon="8.4927209"><ele>136.5</ele><time>2026-04-05T10:47:53.932Z</time></trkpt><trkpt lat="39.6665832" lon="8.4926382"><ele>135.66666666666666</ele><time>2026-04-05T10:47:56.931Z</time></trkpt><trkpt lat="39.6665341" lon="8.4925641"><ele>134.83333333333331</ele><time>2026-04-05T10:48:02.931Z</time></trkpt><trkpt lat="39.6664887" lon="8.4924808"><ele>134.0</ele><time>2026-04-05T10:48:05.931Z</time></trkpt><trkpt lat="39.6664356" lon="8.4923916"><ele>134.0</ele><time>2026-04-05T10:48:08.931Z</time></trkpt><trkpt lat="39.6663802" lon="8.4923022"><ele>134.0</ele><time>2026-04-05T10:48:11.931Z</time></trkpt><trkpt lat="39.6663438" lon="8.492227"><ele>134.0</ele><time>2026-04-05T10:48:13.93Z</time></trkpt><trkpt lat="39.6663132" lon="8.4921373"><ele>134.0</ele><time>2026-04-05T10:48:15.931Z</time></trkpt><trkpt lat="39.6662877" lon="8.4920485"><ele>134.0</ele><time>2026-04-05T10:48:17.93Z</time></trkpt><trkpt lat="39.6662597" lon="8.4919579"><ele>134.0</ele><time>2026-04-05T10:48:19.93Z</time></trkpt><trkpt lat="39.6662302" lon="8.4918647"><ele>134.0</ele><time>2026-04-05T10:48:21.931Z</time></trkpt><trkpt lat="39.6662017" lon="8.4917738"><ele>134.0</ele><time>2026-04-05T10:48:23.931Z</time></trkpt><trkpt lat="39.6661817" lon="8.491685"><ele>134.0</ele><time>2026-04-05T10:48:25.93Z</time></trkpt><trkpt lat="39.6661431" lon="8.4915755"><ele>134.0</ele><time>2026-04-05T10:48:28.931Z</time></trkpt><trkpt lat="39.666113" lon="8.4915034"><ele>134.0</ele><time>2026-04-05T10:48:30.931Z</time></trkpt><trkpt lat="39.6660781" lon="8.4914236"><ele>134.0</ele><time>2026-04-05T10:48:32.93Z</time></trkpt><trkpt lat="39.6660419" lon="8.4913398"><ele>134.0</ele><time>2026-04-05T10:48:34.93Z</time></trkpt><trkpt lat="39.6659986" lon="8.4912551"><ele>134.83333333333331</ele><time>2026-04-05T10:48:36.931Z</time></trkpt><trkpt lat="39.665959" lon="8.4911788"><ele>135.66666666666666</ele><time>2026-04-05T10:48:38.931Z</time></trkpt><trkpt lat="39.6659182" lon="8.4911124"><ele>136.5</ele><time>2026-04-05T10:48:40.931Z</time></trkpt><trkpt lat="39.6658558" lon="8.4910168"><ele>137.33333333333334</ele><time>2026-04-05T10:48:43.932Z</time></trkpt><trkpt lat="39.6657994" lon="8.4909476"><ele>138.16666666666669</ele><time>2026-04-05T10:48:45.93Z</time></trkpt><trkpt lat="39.665737" lon="8.4908716"><ele>139.0</ele><time>2026-04-05T10:48:47.932Z</time></trkpt><trkpt lat="39.6656868" lon="8.4907886"><ele>139.0</ele><time>2026-04-05T10:48:49.93Z</time></trkpt><trkpt lat="39.6656488" lon="8.4907015"><ele>139.0</ele><time>2026-04-05T10:48:51.931Z</time></trkpt><trkpt lat="39.6656282" lon="8.490596"><ele>139.0</ele><time>2026-04-05T10:48:54.931Z</time></trkpt><trkpt lat="39.6656415" lon="8.4904977"><ele>139.0</ele><time>2026-04-05T10:48:57.931Z</time></trkpt><trkpt lat="39.6656792" lon="8.490406"><ele>139.0</ele><time>2026-04-05T10:49:06.931Z</time></trkpt><trkpt lat="39.665709" lon="8.4903194"><ele>139.0</ele><time>2026-04-05T10:49:09.931Z</time></trkpt><trkpt lat="39.6657283" lon="8.490228"><ele>139.28571428571428</ele><time>2026-04-05T10:49:12.931Z</time></trkpt><trkpt lat="39.6657428" lon="8.4901262"><ele>139.57142857142858</ele><time>2026-04-05T10:49:15.931Z</time></trkpt><trkpt lat="39.6657569" lon="8.490028"><ele>139.85714285714286</ele><time>2026-04-05T10:49:18.931Z</time></trkpt><trkpt lat="39.6657528" lon="8.4899409"><ele>140.14285714285714</ele><time>2026-04-05T10:49:21.931Z</time></trkpt><trkpt lat="39.6657166" lon="8.4898679"><ele>140.42857142857142</ele><time>2026-04-05T10:49:25.931Z</time></trkpt><trkpt lat="39.6656513" lon="8.489823"><ele>140.71428571428572</ele><time>2026-04-05T10:49:29.931Z</time></trkpt><trkpt lat="39.6655901" lon="8.4897928"><ele>141.0</ele><time>2026-04-05T10:49:32.931Z</time></trkpt><trkpt lat="39.6655249" lon="8.4897361"><ele>141.0</ele><time>2026-04-05T10:49:36.931Z</time></trkpt><trkpt lat="39.6654837" lon="8.4896392"><ele>141.0</ele><time>2026-04-05T10:49:39.93Z</time></trkpt><trkpt lat="39.6654568" lon="8.4895443"><ele>141.0</ele><time>2026-04-05T10:49:42.93Z</time></trkpt><trkpt lat="39.6654093" lon="8.4894588"><ele>141.0</ele><time>2026-04-05T10:49:46.93Z</time></trkpt><trkpt lat="39.6653716" lon="8.4893878"><ele>141.0</ele><time>2026-04-05T10:49:49.931Z</time></trkpt><trkpt lat="39.6653399" lon="8.4893085"><ele>141.0</ele><time>2026-04-05T10:49:52.93Z</time></trkpt><trkpt lat="39.6653163" lon="8.489216"><ele>141.5</ele><time>2026-04-05T10:49:55.931Z</time></trkpt><trkpt lat="39.6653046" lon="8.4891316"><ele>142.0</ele><time>2026-04-05T10:49:57.93Z</time></trkpt><trkpt lat="39.6653003" lon="8.4890483"><ele>142.5</ele><time>2026-04-05T10:49:59.93Z</time></trkpt><trkpt lat="39.6652992" lon="8.4889395"><ele>143.0</ele><time>2026-04-05T10:50:02.931Z</time></trkpt><trkpt lat="39.6652957" lon="8.4888419"><ele>143.5</ele><time>2026-04-05T10:50:05.931Z</time></trkpt><trkpt lat="39.6652952" lon="8.4887262"><ele>144.0</ele><time>2026-04-05T10:50:08.931Z</time></trkpt><trkpt lat="39.6653094" lon="8.4886044"><ele>142.83333333333334</ele><time>2026-04-05T10:50:11.931Z</time></trkpt><trkpt lat="39.6653282" lon="8.4885234"><ele>141.66666666666666</ele><time>2026-04-05T10:50:13.931Z</time></trkpt><trkpt lat="39.6653786" lon="8.4884177"><ele>140.5</ele><time>2026-04-05T10:50:15.931Z</time></trkpt><trkpt lat="39.6654252" lon="8.4883364"><ele>139.33333333333331</ele><time>2026-04-05T10:50:16.93Z</time></trkpt><trkpt lat="39.6654672" lon="8.4882529"><ele>138.16666666666666</ele><time>2026-04-05T10:50:17.93Z</time></trkpt><trkpt lat="39.6655263" lon="8.4881355"><ele>137.0</ele><time>2026-04-05T10:50:19.931Z</time></trkpt><trkpt lat="39.6655686" lon="8.4880443"><ele>137.00000000000003</ele><time>2026-04-05T10:50:21.931Z</time></trkpt><trkpt lat="39.6656028" lon="8.4879692"><ele>137.0</ele><time>2026-04-05T10:50:23.931Z</time></trkpt><trkpt lat="39.6656396" lon="8.4878998"><ele>137.0</ele><time>2026-04-05T10:50:26.931Z</time></trkpt><trkpt lat="39.6656892" lon="8.4878412"><ele>137.0</ele><time>2026-04-05T10:50:31.93Z</time></trkpt><trkpt lat="39.6657245" lon="8.4877589"><ele>137.0</ele><time>2026-04-05T10:50:36.93Z</time></trkpt><trkpt lat="39.665727" lon="8.4876589"><ele>137.00000000000003</ele><time>2026-04-05T10:50:41.931Z</time></trkpt><trkpt lat="39.665714" lon="8.4875556"><ele>137.0</ele><time>2026-04-05T10:50:44.931Z</time></trkpt><trkpt lat="39.6657062" lon="8.4874708"><ele>135.71428571428572</ele><time>2026-04-05T10:50:46.931Z</time></trkpt><trkpt lat="39.665696" lon="8.4873681"><ele>134.42857142857144</ele><time>2026-04-05T10:50:49.93Z</time></trkpt><trkpt lat="39.6656866" lon="8.4872675"><ele>133.14285714285714</ele><time>2026-04-05T10:50:53.93Z</time></trkpt><trkpt lat="39.6656839" lon="8.4871825"><ele>131.85714285714286</ele><time>2026-04-05T10:50:58.93Z</time></trkpt><trkpt lat="39.6656906" lon="8.4870847"><ele>130.57142857142856</ele><time>2026-04-05T10:51:04.93Z</time></trkpt><trkpt lat="39.665688" lon="8.4869954"><ele>129.28571428571428</ele><time>2026-04-05T10:51:09.93Z</time></trkpt><trkpt lat="39.6656845" lon="8.4869065"><ele>128.0</ele><time>2026-04-05T10:51:13.931Z</time></trkpt><trkpt lat="39.6656869" lon="8.4867926"><ele>126.33333333333333</ele><time>2026-04-05T10:51:16.93Z</time></trkpt><trkpt lat="39.6656954" lon="8.486693"><ele>124.66666666666666</ele><time>2026-04-05T10:51:18.931Z</time></trkpt><trkpt lat="39.6657119" lon="8.4865804"><ele>123.0</ele><time>2026-04-05T10:51:20.931Z</time></trkpt><trkpt lat="39.6657417" lon="8.4864688"><ele>121.33333333333334</ele><time>2026-04-05T10:51:22.93Z</time></trkpt><trkpt lat="39.6657775" lon="8.4863737"><ele>119.66666666666667</ele><time>2026-04-05T10:51:24.93Z</time></trkpt><trkpt lat="39.6658211" lon="8.4862947"><ele>118.0</ele><time>2026-04-05T10:51:26.931Z</time></trkpt><trkpt lat="39.6658789" lon="8.4862231"><ele>117.85714285714286</ele><time>2026-04-05T10:51:28.931Z</time></trkpt><trkpt lat="39.6659314" lon="8.4861696"><ele>117.71428571428572</ele><time>2026-04-05T10:51:30.93Z</time></trkpt><trkpt lat="39.6659813" lon="8.4861125"><ele>117.57142857142858</ele><time>2026-04-05T10:51:32.931Z</time></trkpt><trkpt lat="39.6660257" lon="8.4860437"><ele>117.42857142857143</ele><time>2026-04-05T10:51:34.931Z</time></trkpt><trkpt lat="39.6660594" lon="8.4859648"><ele>117.2857142857143</ele><time>2026-04-05T10:51:36.931Z</time></trkpt><trkpt lat="39.6660804" lon="8.4858761"><ele>117.14285714285715</ele><time>2026-04-05T10:51:38.93Z</time></trkpt><trkpt lat="39.6660889" lon="8.4857725"><ele>117.0</ele><time>2026-04-05T10:51:40.931Z</time></trkpt><trkpt lat="39.6660916" lon="8.4856602"><ele>117.0</ele><time>2026-04-05T10:51:42.93Z</time></trkpt><trkpt lat="39.6660788" lon="8.4855318"><ele>116.99999999999999</ele><time>2026-04-05T10:51:44.932Z</time></trkpt><trkpt lat="39.6660649" lon="8.4853929"><ele>116.99999999999999</ele><time>2026-04-05T10:51:46.931Z</time></trkpt><trkpt lat="39.6660545" lon="8.4852793"><ele>117.0</ele><time>2026-04-05T10:51:48.929Z</time></trkpt><trkpt lat="39.666057" lon="8.4851694"><ele>117.0</ele><time>2026-04-05T10:51:50.931Z</time></trkpt><trkpt lat="39.6660537" lon="8.4850607"><ele>118.0</ele><time>2026-04-05T10:51:52.93Z</time></trkpt><trkpt lat="39.666049" lon="8.4849618"><ele>119.0</ele><time>2026-04-05T10:51:54.932Z</time></trkpt><trkpt lat="39.6660453" lon="8.4848651"><ele>120.0</ele><time>2026-04-05T10:51:56.931Z</time></trkpt><trkpt lat="39.6660387" lon="8.4847597"><ele>121.0</ele><time>2026-04-05T10:51:58.93Z</time></trkpt><trkpt lat="39.666031" lon="8.4846514"><ele>122.0</ele><time>2026-04-05T10:52:00.93Z</time></trkpt><trkpt lat="39.6660218" lon="8.4845389"><ele>123.0</ele><time>2026-04-05T10:52:02.93Z</time></trkpt><trkpt lat="39.6660187" lon="8.4844194"><ele>123.0</ele><time>2026-04-05T10:52:04.931Z</time></trkpt><trkpt lat="39.666014" lon="8.4843027"><ele>123.0</ele><time>2026-04-05T10:52:06.931Z</time></trkpt><trkpt lat="39.6660157" lon="8.4841887"><ele>123.0</ele><time>2026-04-05T10:52:08.931Z</time></trkpt><trkpt lat="39.6660156" lon="8.4840852"><ele>123.0</ele><time>2026-04-05T10:52:10.931Z</time></trkpt><trkpt lat="39.6660166" lon="8.4839868"><ele>123.0</ele><time>2026-04-05T10:52:12.93Z</time></trkpt><trkpt lat="39.6660275" lon="8.4838875"><ele>123.0</ele><time>2026-04-05T10:52:14.931Z</time></trkpt><trkpt lat="39.6660517" lon="8.4837823"><ele>121.60000000000001</ele><time>2026-04-05T10:52:16.931Z</time></trkpt><trkpt lat="39.6660908" lon="8.4836644"><ele>120.20000000000002</ele><time>2026-04-05T10:52:18.931Z</time></trkpt><trkpt lat="39.6661214" lon="8.4835435"><ele>118.8</ele><time>2026-04-05T10:52:20.929Z</time></trkpt><trkpt lat="39.6661447" lon="8.4834212"><ele>117.4</ele><time>2026-04-05T10:52:22.931Z</time></trkpt><trkpt lat="39.6661635" lon="8.4832886"><ele>116.0</ele><time>2026-04-05T10:52:24.93Z</time></trkpt><trkpt lat="39.6661707" lon="8.483139"><ele>112.0</ele><time>2026-04-05T10:52:26.93Z</time></trkpt><trkpt lat="39.6661693" lon="8.4829883"><ele>108.0</ele><time>2026-04-05T10:52:28.931Z</time></trkpt><trkpt lat="39.6661605" lon="8.4828432"><ele>104.0</ele><time>2026-04-05T10:52:30.93Z</time></trkpt><trkpt lat="39.6661413" lon="8.4826954"><ele>100.0</ele><time>2026-04-05T10:52:32.931Z</time></trkpt><trkpt lat="39.6661202" lon="8.482544"><ele>102.8</ele><time>2026-04-05T10:52:34.93Z</time></trkpt><trkpt lat="39.6661016" lon="8.4824008"><ele>105.6</ele><time>2026-04-05T10:52:36.93Z</time></trkpt><trkpt lat="39.6660772" lon="8.482267"><ele>108.4</ele><time>2026-04-05T10:52:38.931Z</time></trkpt><trkpt lat="39.6660623" lon="8.4821242"><ele>111.2</ele><time>2026-04-05T10:52:40.931Z</time></trkpt><trkpt lat="39.6660421" lon="8.4819835"><ele>114.0</ele><time>2026-04-05T10:52:42.93Z</time></trkpt><trkpt lat="39.6660171" lon="8.481849"><ele>114.0</ele><time>2026-04-05T10:52:44.93Z</time></trkpt><trkpt lat="39.6660101" lon="8.481712"><ele>114.0</ele><time>2026-04-05T10:52:46.931Z</time></trkpt><trkpt lat="39.6660091" lon="8.4816052"><ele>114.0</ele><time>2026-04-05T10:52:48.93Z</time></trkpt><trkpt lat="39.6660064" lon="8.4814947"><ele>114.0</ele><time>2026-04-05T10:52:50.931Z</time></trkpt><trkpt lat="39.6660046" lon="8.4813786"><ele>114.0</ele><time>2026-04-05T10:52:53.93Z</time></trkpt><trkpt lat="39.6660088" lon="8.4812759"><ele>114.0</ele><time>2026-04-05T10:52:56.93Z</time></trkpt><trkpt lat="39.6660188" lon="8.4811896"><ele>113.5</ele><time>2026-04-05T10:52:59.93Z</time></trkpt><trkpt lat="39.6660281" lon="8.4810955"><ele>113.0</ele><time>2026-04-05T10:53:02.93Z</time></trkpt><trkpt lat="39.6660328" lon="8.481008"><ele>112.5</ele><time>2026-04-05T10:53:04.929Z</time></trkpt><trkpt lat="39.6660294" lon="8.480894"><ele>112.0</ele><time>2026-04-05T10:53:06.93Z</time></trkpt><trkpt lat="39.6660285" lon="8.4807665"><ele>111.5</ele><time>2026-04-05T10:53:08.93Z</time></trkpt><trkpt lat="39.6660208" lon="8.4806396"><ele>111.0</ele><time>2026-04-05T10:53:10.93Z</time></trkpt><trkpt lat="39.6660155" lon="8.4805209"><ele>110.33333333333333</ele><time>2026-04-05T10:53:12.93Z</time></trkpt><trkpt lat="39.666011" lon="8.4804002"><ele>109.66666666666666</ele><time>2026-04-05T10:53:14.929Z</time></trkpt><trkpt lat="39.6659959" lon="8.4803014"><ele>109.0</ele><time>2026-04-05T10:53:16.931Z</time></trkpt><trkpt lat="39.6659939" lon="8.4801945"><ele>108.33333333333333</ele><time>2026-04-05T10:53:18.93Z</time></trkpt><trkpt lat="39.6659926" lon="8.4800722"><ele>107.66666666666666</ele><time>2026-04-05T10:53:20.93Z</time></trkpt><trkpt lat="39.6659816" lon="8.4799407"><ele>107.0</ele><time>2026-04-05T10:53:22.929Z</time></trkpt><trkpt lat="39.6659784" lon="8.4797998"><ele>107.0</ele><time>2026-04-05T10:53:24.93Z</time></trkpt><trkpt lat="39.6659764" lon="8.4796571"><ele>106.99999999999999</ele><time>2026-04-05T10:53:26.931Z</time></trkpt><trkpt lat="39.6659784" lon="8.4795169"><ele>106.99999999999999</ele><time>2026-04-05T10:53:28.93Z</time></trkpt><trkpt lat="39.6659744" lon="8.4793723"><ele>107.0</ele><time>2026-04-05T10:53:30.93Z</time></trkpt><trkpt lat="39.6659751" lon="8.4792354"><ele>107.0</ele><time>2026-04-05T10:53:32.931Z</time></trkpt><trkpt lat="39.6659742" lon="8.4790937"><ele>106.8</ele><time>2026-04-05T10:53:34.931Z</time></trkpt><trkpt lat="39.6659659" lon="8.4789479"><ele>106.6</ele><time>2026-04-05T10:53:36.93Z</time></trkpt><trkpt lat="39.6659662" lon="8.4788168"><ele>106.39999999999999</ele><time>2026-04-05T10:53:38.93Z</time></trkpt><trkpt lat="39.6659769" lon="8.4786968"><ele>106.19999999999999</ele><time>2026-04-05T10:53:40.93Z</time></trkpt><trkpt lat="39.6660041" lon="8.4785884"><ele>106.0</ele><time>2026-04-05T10:53:42.929Z</time></trkpt><trkpt lat="39.6660323" lon="8.4784914"><ele>105.71428571428572</ele><time>2026-04-05T10:53:44.93Z</time></trkpt><trkpt lat="39.6660625" lon="8.4784147"><ele>105.42857142857142</ele><time>2026-04-05T10:53:46.93Z</time></trkpt><trkpt lat="39.6660933" lon="8.4783371"><ele>105.14285714285714</ele><time>2026-04-05T10:53:48.93Z</time></trkpt><trkpt lat="39.6661176" lon="8.4782532"><ele>104.85714285714286</ele><time>2026-04-05T10:53:50.93Z</time></trkpt><trkpt lat="39.6661398" lon="8.4781638"><ele>104.57142857142858</ele><time>2026-04-05T10:53:52.929Z</time></trkpt><trkpt lat="39.6661586" lon="8.4780761"><ele>104.28571428571428</ele><time>2026-04-05T10:53:54.93Z</time></trkpt><trkpt lat="39.6661759" lon="8.4779898"><ele>104.0</ele><time>2026-04-05T10:53:56.93Z</time></trkpt><trkpt lat="39.6661944" lon="8.4778817"><ele>100.16666666666666</ele><time>2026-04-05T10:53:59.93Z</time></trkpt><trkpt lat="39.666209" lon="8.4777991"><ele>96.33333333333333</ele><time>2026-04-05T10:54:01.93Z</time></trkpt><trkpt lat="39.6662254" lon="8.4776817"><ele>92.5</ele><time>2026-04-05T10:54:04.93Z</time></trkpt><trkpt lat="39.6662364" lon="8.4775792"><ele>88.66666666666666</ele><time>2026-04-05T10:54:07.93Z</time></trkpt><trkpt lat="39.6662471" lon="8.4774637"><ele>84.83333333333333</ele><time>2026-04-05T10:54:10.93Z</time></trkpt><trkpt lat="39.6662519" lon="8.4773733"><ele>81.0</ele><time>2026-04-05T10:54:12.931Z</time></trkpt><trkpt lat="39.6662485" lon="8.4772711"><ele>81.0</ele><time>2026-04-05T10:54:15.93Z</time></trkpt><trkpt lat="39.6662489" lon="8.4771789"><ele>81.0</ele><time>2026-04-05T10:54:18.93Z</time></trkpt><trkpt lat="39.6662552" lon="8.4770851"><ele>81.0</ele><time>2026-04-05T10:54:21.93Z</time></trkpt><trkpt lat="39.6662762" lon="8.4769931"><ele>81.0</ele><time>2026-04-05T10:54:23.93Z</time></trkpt><trkpt lat="39.6663097" lon="8.4768937"><ele>81.0</ele><time>2026-04-05T10:54:25.93Z</time></trkpt><trkpt lat="39.6663558" lon="8.476774"><ele>81.0</ele><time>2026-04-05T10:54:27.93Z</time></trkpt><trkpt lat="39.6663918" lon="8.4766442"><ele>79.8</ele><time>2026-04-05T10:54:29.93Z</time></trkpt><trkpt lat="39.6664301" lon="8.476509"><ele>78.6</ele><time>2026-04-05T10:54:31.93Z</time></trkpt><trkpt lat="39.6664409" lon="8.4764158"><ele>77.4</ele><time>2026-04-05T10:54:32.931Z</time></trkpt><trkpt lat="39.6664602" lon="8.4763373"><ele>76.2</ele><time>2026-04-05T10:54:33.931Z</time></trkpt><trkpt lat="39.6664991" lon="8.4761942"><ele>75.0</ele><time>2026-04-05T10:54:35.93Z</time></trkpt><trkpt lat="39.6665399" lon="8.4760478"><ele>74.0</ele><time>2026-04-05T10:54:37.929Z</time></trkpt><trkpt lat="39.6665689" lon="8.4759625"><ele>73.0</ele><time>2026-04-05T10:54:38.93Z</time></trkpt><trkpt lat="39.6665937" lon="8.4758855"><ele>72.0</ele><time>2026-04-05T10:54:39.93Z</time></trkpt><trkpt lat="39.6666229" lon="8.4758101"><ele>71.0</ele><time>2026-04-05T10:54:40.929Z</time></trkpt><trkpt lat="39.6666717" lon="8.4756587"><ele>70.0</ele><time>2026-04-05T10:54:42.93Z</time></trkpt><trkpt lat="39.6666932" lon="8.4755805"><ele>69.0</ele><time>2026-04-05T10:54:43.93Z</time></trkpt><trkpt lat="39.6667311" lon="8.4754397"><ele>68.4</ele><time>2026-04-05T10:54:45.93Z</time></trkpt><trkpt lat="39.666762" lon="8.4753145"><ele>67.80000000000001</ele><time>2026-04-05T10:54:47.929Z</time></trkpt><trkpt lat="39.666803" lon="8.4752199"><ele>67.19999999999999</ele><time>2026-04-05T10:54:49.93Z</time></trkpt><trkpt lat="39.6668431" lon="8.4751047"><ele>66.6</ele><time>2026-04-05T10:54:51.93Z</time></trkpt><trkpt lat="39.666877" lon="8.4749581"><ele>66.0</ele><time>2026-04-05T10:54:53.93Z</time></trkpt><trkpt lat="39.6669128" lon="8.4748196"><ele>66.0</ele><time>2026-04-05T10:54:55.93Z</time></trkpt><trkpt lat="39.6669368" lon="8.4747129"><ele>66.0</ele><time>2026-04-05T10:54:57.93Z</time></trkpt><trkpt lat="39.6669575" lon="8.4746027"><ele>66.0</ele><time>2026-04-05T10:54:59.93Z</time></trkpt><trkpt lat="39.6669606" lon="8.474471"><ele>66.0</ele><time>2026-04-05T10:55:01.93Z</time></trkpt><trkpt lat="39.6669438" lon="8.4743522"><ele>66.0</ele><time>2026-04-05T10:55:03.929Z</time></trkpt><trkpt lat="39.666928" lon="8.4742321"><ele>65.6</ele><time>2026-04-05T10:55:05.93Z</time></trkpt><trkpt lat="39.6669108" lon="8.4741147"><ele>65.19999999999999</ele><time>2026-04-05T10:55:07.93Z</time></trkpt><trkpt lat="39.6668987" lon="8.4739997"><ele>64.80000000000001</ele><time>2026-04-05T10:55:09.93Z</time></trkpt><trkpt lat="39.6669093" lon="8.4738745"><ele>64.4</ele><time>2026-04-05T10:55:11.93Z</time></trkpt><trkpt lat="39.6669311" lon="8.4737531"><ele>64.0</ele><time>2026-04-05T10:55:13.93Z</time></trkpt><trkpt lat="39.6669321" lon="8.4736539"><ele>63.0</ele><time>2026-04-05T10:55:15.929Z</time></trkpt><trkpt lat="39.6669198" lon="8.4735555"><ele>61.99999999999999</ele><time>2026-04-05T10:55:17.93Z</time></trkpt><trkpt lat="39.6669073" lon="8.4734571"><ele>61.0</ele><time>2026-04-05T10:55:19.93Z</time></trkpt><trkpt lat="39.6668929" lon="8.4733636"><ele>60.0</ele><time>2026-04-05T10:55:21.93Z</time></trkpt><trkpt lat="39.6668826" lon="8.4732819"><ele>58.99999999999999</ele><time>2026-04-05T10:55:23.93Z</time></trkpt><trkpt lat="39.6668808" lon="8.4731913"><ele>58.0</ele><time>2026-04-05T10:55:26.93Z</time></trkpt><trkpt lat="39.6668658" lon="8.4730807"><ele>57.0</ele><time>2026-04-05T10:55:30.93Z</time></trkpt><trkpt lat="39.6668592" lon="8.4729877"><ele>55.71428571428571</ele><time>2026-04-05T10:55:33.93Z</time></trkpt><trkpt lat="39.6668658" lon="8.4729022"><ele>54.42857142857142</ele><time>2026-04-05T10:55:36.929Z</time></trkpt><trkpt lat="39.6668841" lon="8.4728102"><ele>53.14285714285714</ele><time>2026-04-05T10:55:39.93Z</time></trkpt><trkpt lat="39.6669167" lon="8.4727227"><ele>51.857142857142854</ele><time>2026-04-05T10:55:42.929Z</time></trkpt><trkpt lat="39.6669613" lon="8.4726354"><ele>50.57142857142857</ele><time>2026-04-05T10:55:45.93Z</time></trkpt><trkpt lat="39.6670129" lon="8.4725617"><ele>49.28571428571428</ele><time>2026-04-05T10:55:48.93Z</time></trkpt><trkpt lat="39.6670685" lon="8.4724996"><ele>48.0</ele><time>2026-04-05T10:55:52.93Z</time></trkpt><trkpt lat="39.6671217" lon="8.4724508"><ele>47.57142857142857</ele><time>2026-04-05T10:55:55.93Z</time></trkpt><trkpt lat="39.6671805" lon="8.4724065"><ele>47.14285714285714</ele><time>2026-04-05T10:55:58.93Z</time></trkpt><trkpt lat="39.6672436" lon="8.4723855"><ele>46.71428571428571</ele><time>2026-04-05T10:56:01.93Z</time></trkpt><trkpt lat="39.6673112" lon="8.4723871"><ele>46.285714285714285</ele><time>2026-04-05T10:56:05.929Z</time></trkpt><trkpt lat="39.6673779" lon="8.4723509"><ele>45.85714285714286</ele><time>2026-04-05T10:56:11.93Z</time></trkpt><trkpt lat="39.667365" lon="8.4722566"><ele>45.42857142857142</ele><time>2026-04-05T10:56:17.93Z</time></trkpt><trkpt lat="39.6673161" lon="8.4721996"><ele>45.0</ele><time>2026-04-05T10:56:22.93Z</time></trkpt><trkpt lat="39.6672386" lon="8.472152"><ele>45.0</ele><time>2026-04-05T10:56:27.929Z</time></trkpt><trkpt lat="39.6671734" lon="8.4721186"><ele>45.0</ele><time>2026-04-05T10:56:30.93Z</time></trkpt><trkpt lat="39.6671024" lon="8.4720903"><ele>45.0</ele><time>2026-04-05T10:56:34.93Z</time></trkpt><trkpt lat="39.6670433" lon="8.472054"><ele>45.0</ele><time>2026-04-05T10:56:40.929Z</time></trkpt><trkpt lat="39.6670102" lon="8.4719752"><ele>45.0</ele><time>2026-04-05T10:56:45.929Z</time></trkpt><trkpt lat="39.6670191" lon="8.4718836"><ele>45.0</ele><time>2026-04-05T10:56:48.93Z</time></trkpt><trkpt lat="39.6670339" lon="8.471792"><ele>45.0</ele><time>2026-04-05T10:56:51.931Z</time></trkpt><trkpt lat="39.6670552" lon="8.4716894"><ele>43.5</ele><time>2026-04-05T10:56:54.93Z</time></trkpt><trkpt lat="39.667111" lon="8.4715917"><ele>42.0</ele><time>2026-04-05T10:56:57.93Z</time></trkpt><trkpt lat="39.6671549" lon="8.4715232"><ele>40.5</ele><time>2026-04-05T10:56:59.93Z</time></trkpt><trkpt lat="39.6671966" lon="8.4714587"><ele>39.0</ele><time>2026-04-05T10:57:01.93Z</time></trkpt><trkpt lat="39.6672553" lon="8.4713808"><ele>37.5</ele><time>2026-04-05T10:57:04.928Z</time></trkpt><trkpt lat="39.6673187" lon="8.471338"><ele>36.0</ele><time>2026-04-05T10:57:07.929Z</time></trkpt><trkpt lat="39.6673901" lon="8.4713223"><ele>36.0</ele><time>2026-04-05T10:57:10.929Z</time></trkpt><trkpt lat="39.6674489" lon="8.4712816"><ele>36.0</ele><time>2026-04-05T10:57:13.93Z</time></trkpt><trkpt lat="39.6674912" lon="8.4711874"><ele>36.0</ele><time>2026-04-05T10:57:16.93Z</time></trkpt><trkpt lat="39.6675293" lon="8.4711146"><ele>36.0</ele><time>2026-04-05T10:57:18.93Z</time></trkpt><trkpt lat="39.6675846" lon="8.4710274"><ele>36.0</ele><time>2026-04-05T10:57:21.929Z</time></trkpt><trkpt lat="39.6676615" lon="8.470961"><ele>36.0</ele><time>2026-04-05T10:57:24.93Z</time></trkpt><trkpt lat="39.6677538" lon="8.4709519"><ele>36.5</ele><time>2026-04-05T10:57:27.93Z</time></trkpt><trkpt lat="39.6678341" lon="8.4709617"><ele>37.0</ele><time>2026-04-05T10:57:30.93Z</time></trkpt><trkpt lat="39.6679126" lon="8.4709654"><ele>37.5</ele><time>2026-04-05T10:57:34.929Z</time></trkpt><trkpt lat="39.6679756" lon="8.4709013"><ele>38.0</ele><time>2026-04-05T10:57:38.93Z</time></trkpt><trkpt lat="39.6680139" lon="8.470829"><ele>38.5</ele><time>2026-04-05T10:57:41.929Z</time></trkpt><trkpt lat="39.6680488" lon="8.470739"><ele>39.0</ele><time>2026-04-05T10:57:44.93Z</time></trkpt><trkpt lat="39.668086" lon="8.4706462"><ele>39.0</ele><time>2026-04-05T10:57:47.929Z</time></trkpt><trkpt lat="39.6681201" lon="8.4705718"><ele>39.0</ele><time>2026-04-05T10:57:50.929Z</time></trkpt><trkpt lat="39.6681436" lon="8.4704836"><ele>39.0</ele><time>2026-04-05T10:57:53.929Z</time></trkpt><trkpt lat="39.6681697" lon="8.4704072"><ele>39.0</ele><time>2026-04-05T10:57:56.93Z</time></trkpt><trkpt lat="39.6682211" lon="8.4703177"><ele>39.0</ele><time>2026-04-05T10:58:05.93Z</time></trkpt><trkpt lat="39.6682524" lon="8.4702427"><ele>39.0</ele><time>2026-04-05T10:58:07.929Z</time></trkpt><trkpt lat="39.6682956" lon="8.4701571"><ele>39.0</ele><time>2026-04-05T10:58:09.93Z</time></trkpt><trkpt lat="39.6683442" lon="8.4700574"><ele>38.8</ele><time>2026-04-05T10:58:11.929Z</time></trkpt><trkpt lat="39.6683972" lon="8.4699653"><ele>38.599999999999994</ele><time>2026-04-05T10:58:13.93Z</time></trkpt><trkpt lat="39.6684587" lon="8.4698746"><ele>38.4</ele><time>2026-04-05T10:58:15.93Z</time></trkpt><trkpt lat="39.6685203" lon="8.4697775"><ele>38.199999999999996</ele><time>2026-04-05T10:58:17.928Z</time></trkpt><trkpt lat="39.6685848" lon="8.4696983"><ele>38.0</ele><time>2026-04-05T10:58:19.929Z</time></trkpt><trkpt lat="39.6686497" lon="8.4696239"><ele>38.33333333333333</ele><time>2026-04-05T10:58:21.93Z</time></trkpt><trkpt lat="39.6687084" lon="8.4695461"><ele>38.666666666666664</ele><time>2026-04-05T10:58:23.93Z</time></trkpt><trkpt lat="39.6687766" lon="8.4694764"><ele>39.0</ele><time>2026-04-05T10:58:25.929Z</time></trkpt><trkpt lat="39.66884" lon="8.4694064"><ele>39.333333333333336</ele><time>2026-04-05T10:58:27.929Z</time></trkpt><trkpt lat="39.6688995" lon="8.4693285"><ele>39.66666666666667</ele><time>2026-04-05T10:58:29.928Z</time></trkpt><trkpt lat="39.6689459" lon="8.4692307"><ele>40.0</ele><time>2026-04-05T10:58:31.93Z</time></trkpt><trkpt lat="39.6690048" lon="8.4691422"><ele>40.0</ele><time>2026-04-05T10:58:33.93Z</time></trkpt><trkpt lat="39.6690669" lon="8.4690608"><ele>40.0</ele><time>2026-04-05T10:58:35.929Z</time></trkpt><trkpt lat="39.6691304" lon="8.4689884"><ele>40.0</ele><time>2026-04-05T10:58:37.929Z</time></trkpt><trkpt lat="39.6691863" lon="8.4689196"><ele>40.0</ele><time>2026-04-05T10:58:39.929Z</time></trkpt><trkpt lat="39.669245" lon="8.4688529"><ele>40.0</ele><time>2026-04-05T10:58:41.93Z</time></trkpt><trkpt lat="39.6693076" lon="8.4687848"><ele>40.0</ele><time>2026-04-05T10:58:43.929Z</time></trkpt><trkpt lat="39.669368" lon="8.4687176"><ele>39.5</ele><time>2026-04-05T10:58:45.929Z</time></trkpt><trkpt lat="39.669425" lon="8.4686573"><ele>39.0</ele><time>2026-04-05T10:58:47.929Z</time></trkpt><trkpt lat="39.6694827" lon="8.4685946"><ele>38.5</ele><time>2026-04-05T10:58:49.929Z</time></trkpt><trkpt lat="39.6695461" lon="8.468532"><ele>38.0</ele><time>2026-04-05T10:58:51.93Z</time></trkpt><trkpt lat="39.6696269" lon="8.4684881"><ele>37.5</ele><time>2026-04-05T10:58:53.928Z</time></trkpt><trkpt lat="39.6697171" lon="8.4684635"><ele>37.0</ele><time>2026-04-05T10:58:55.929Z</time></trkpt><trkpt lat="39.6697873" lon="8.4684474"><ele>37.0</ele><time>2026-04-05T10:58:57.93Z</time></trkpt><trkpt lat="39.6698624" lon="8.4684173"><ele>37.0</ele><time>2026-04-05T10:59:00.928Z</time></trkpt><trkpt lat="39.6699148" lon="8.4683473"><ele>37.0</ele><time>2026-04-05T10:59:03.929Z</time></trkpt><trkpt lat="39.6699356" lon="8.4682616"><ele>37.0</ele><time>2026-04-05T10:59:05.929Z</time></trkpt><trkpt lat="39.6699585" lon="8.4681714"><ele>37.0</ele><time>2026-04-05T10:59:07.929Z</time></trkpt><trkpt lat="39.6699919" lon="8.4680853"><ele>37.0</ele><time>2026-04-05T10:59:09.929Z</time></trkpt><trkpt lat="39.6700325" lon="8.468003"><ele>37.0</ele><time>2026-04-05T10:59:11.93Z</time></trkpt><trkpt lat="39.6700773" lon="8.4679349"><ele>37.0</ele><time>2026-04-05T10:59:13.93Z</time></trkpt><trkpt lat="39.6701209" lon="8.467865"><ele>37.0</ele><time>2026-04-05T10:59:15.929Z</time></trkpt><trkpt lat="39.6701604" lon="8.4677909"><ele>37.0</ele><time>2026-04-05T10:59:17.93Z</time></trkpt><trkpt lat="39.6702016" lon="8.467728"><ele>37.0</ele><time>2026-04-05T10:59:19.929Z</time></trkpt><trkpt lat="39.6702614" lon="8.4676513"><ele>37.0</ele><time>2026-04-05T10:59:22.929Z</time></trkpt><trkpt lat="39.6702443" lon="8.4675623"><ele>37.0</ele><time>2026-04-05T10:59:26.93Z</time></trkpt><trkpt lat="39.6701682" lon="8.4675076"><ele>37.0</ele><time>2026-04-05T10:59:29.93Z</time></trkpt><trkpt lat="39.670083" lon="8.4674473"><ele>37.0</ele><time>2026-04-05T10:59:32.928Z</time></trkpt><trkpt lat="39.6700251" lon="8.4674013"><ele>37.0</ele><time>2026-04-05T10:59:34.93Z</time></trkpt><trkpt lat="39.6699609" lon="8.4673486"><ele>37.0</ele><time>2026-04-05T10:59:36.929Z</time></trkpt><trkpt lat="39.6698948" lon="8.4672964"><ele>37.0</ele><time>2026-04-05T10:59:38.928Z</time></trkpt><trkpt lat="39.669825" lon="8.4672457"><ele>37.0</ele><time>2026-04-05T10:59:40.929Z</time></trkpt><trkpt lat="39.6697525" lon="8.4672059"><ele>37.0</ele><time>2026-04-05T10:59:42.929Z</time></trkpt><trkpt lat="39.669675" lon="8.4671665"><ele>37.0</ele><time>2026-04-05T10:59:44.929Z</time></trkpt><trkpt lat="39.6695968" lon="8.4671344"><ele>37.0</ele><time>2026-04-05T10:59:46.929Z</time></trkpt><trkpt lat="39.6695285" lon="8.4671068"><ele>37.0</ele><time>2026-04-05T10:59:48.929Z</time></trkpt><trkpt lat="39.669463" lon="8.4670819"><ele>37.0</ele><time>2026-04-05T10:59:50.929Z</time></trkpt><trkpt lat="39.6693957" lon="8.467051"><ele>37.0</ele><time>2026-04-05T10:59:52.93Z</time></trkpt><trkpt lat="39.6693305" lon="8.4670161"><ele>37.0</ele><time>2026-04-05T10:59:54.929Z</time></trkpt><trkpt lat="39.6692572" lon="8.4669748"><ele>37.0</ele><time>2026-04-05T10:59:57.929Z</time></trkpt><trkpt lat="39.6691941" lon="8.4669297"><ele>35.5</ele><time>2026-04-05T11:00:01.928Z</time></trkpt><trkpt lat="39.6691379" lon="8.466885"><ele>34.0</ele><time>2026-04-05T11:00:04.93Z</time></trkpt><trkpt lat="39.6690712" lon="8.4668095"><ele>32.5</ele><time>2026-04-05T11:00:07.929Z</time></trkpt><trkpt lat="39.6690161" lon="8.466725"><ele>31.0</ele><time>2026-04-05T11:00:10.929Z</time></trkpt><trkpt lat="39.6689737" lon="8.4666634"><ele>29.500000000000004</ele><time>2026-04-05T11:00:13.929Z</time></trkpt><trkpt lat="39.6689238" lon="8.4665721"><ele>28.0</ele><time>2026-04-05T11:00:18.929Z</time></trkpt><trkpt lat="39.6688902" lon="8.4664913"><ele>28.0</ele><time>2026-04-05T11:00:20.929Z</time></trkpt><trkpt lat="39.668863" lon="8.4663997"><ele>28.0</ele><time>2026-04-05T11:00:22.928Z</time></trkpt><trkpt lat="39.6688413" lon="8.4663037"><ele>28.0</ele><time>2026-04-05T11:00:24.929Z</time></trkpt><trkpt lat="39.6688237" lon="8.4662024"><ele>28.0</ele><time>2026-04-05T11:00:26.929Z</time></trkpt><trkpt lat="39.6688068" lon="8.4660975"><ele>28.0</ele><time>2026-04-05T11:00:28.929Z</time></trkpt><trkpt lat="39.6687971" lon="8.4659842"><ele>28.0</ele><time>2026-04-05T11:00:30.929Z</time></trkpt></trkseg></trk></gpx>